<?xml version="1.0" encoding="UTF-8" standalone="no" ?>
<gpx xmlns="http://www.topografix.com/GPX/1/1" xmlns:xsi="http://www.w3.org/2001/XMLSchema-instance" xsi:schemaLocation="http://www.topografix.com/GPX/1/1 http://www.topografix.com/GPX/1/1/gpx.xsd" version="1.1" creator="VisuGPX - https://www.visugpx.com">
  <metadata>
    <name>La Saga de la Noix 2020 - 14 km sur TraceDeTrail.fr</name>
  </metadata>
  <trk>
    <name><![CDATA[La Saga de la Noix 2020 - 14 km sur TraceDeTrail.fr]]></name>
    <extensions>
      <line xmlns="http://www.topografix.com/GPX/gpx_style/0/2">
        <color>0000FF</color>
        <width>4</width>
      </line>
    </extensions>
    <trkseg>
      <trkpt lat="45.21558" lon="5.41745">
        <ele>275</ele>
        <time>2000-01-01T01:04:25.000Z</time>
      </trkpt>
      <trkpt lat="45.21556" lon="5.41742">
        <ele>275.3</ele>
        <time>2000-01-01T01:04:35.000Z</time>
      </trkpt>
      <trkpt lat="45.21555" lon="5.41734">
        <ele>275.6</ele>
        <time>2000-01-01T01:04:45.000Z</time>
      </trkpt>
      <trkpt lat="45.21551" lon="5.41697">
        <ele>279</ele>
        <time>2000-01-01T01:04:55.000Z</time>
      </trkpt>
      <trkpt lat="45.21549" lon="5.41688">
        <ele>277</ele>
        <time>2000-01-01T01:05:05.000Z</time>
      </trkpt>
      <trkpt lat="45.21537" lon="5.41649">
        <ele>285</ele>
        <time>2000-01-01T01:05:15.000Z</time>
      </trkpt>
      <trkpt lat="45.21533" lon="5.41629">
        <ele>278.5</ele>
        <time>2000-01-01T01:05:25.000Z</time>
      </trkpt>
      <trkpt lat="45.2153" lon="5.41617">
        <ele>287</ele>
        <time>2000-01-01T01:05:35.000Z</time>
      </trkpt>
      <trkpt lat="45.2153" lon="5.41612">
        <ele>279</ele>
        <time>2000-01-01T01:05:45.000Z</time>
      </trkpt>
      <trkpt lat="45.21531" lon="5.41611">
        <ele>279.1</ele>
        <time>2000-01-01T01:05:55.000Z</time>
      </trkpt>
      <trkpt lat="45.21535" lon="5.41607">
        <ele>279.3</ele>
        <time>2000-01-01T01:06:05.000Z</time>
      </trkpt>
      <trkpt lat="45.21545" lon="5.41602">
        <ele>287</ele>
        <time>2000-01-01T01:06:15.000Z</time>
      </trkpt>
      <trkpt lat="45.21583" lon="5.4159">
        <ele>281</ele>
        <time>2000-01-01T01:06:25.000Z</time>
      </trkpt>
      <trkpt lat="45.21624" lon="5.41573">
        <ele>281</ele>
        <time>2000-01-01T01:06:35.000Z</time>
      </trkpt>
      <trkpt lat="45.2167" lon="5.41559">
        <ele>287</ele>
        <time>2000-01-01T01:06:45.000Z</time>
      </trkpt>
      <trkpt lat="45.21677" lon="5.41555">
        <ele>288.5</ele>
        <time>2000-01-01T01:06:55.000Z</time>
      </trkpt>
      <trkpt lat="45.21699" lon="5.41539">
        <ele>292</ele>
        <time>2000-01-01T01:07:05.000Z</time>
      </trkpt>
      <trkpt lat="45.21704" lon="5.41536">
        <ele>291.4</ele>
        <time>2000-01-01T01:07:15.000Z</time>
      </trkpt>
      <trkpt lat="45.21711" lon="5.41535">
        <ele>292.7</ele>
        <time>2000-01-01T01:07:25.000Z</time>
      </trkpt>
      <trkpt lat="45.21722" lon="5.41535">
        <ele>295</ele>
        <time>2000-01-01T01:07:35.000Z</time>
      </trkpt>
      <trkpt lat="45.21741" lon="5.41539">
        <ele>301</ele>
        <time>2000-01-01T01:07:45.000Z</time>
      </trkpt>
      <trkpt lat="45.21775" lon="5.4154">
        <ele>307</ele>
        <time>2000-01-01T01:07:55.000Z</time>
      </trkpt>
      <trkpt lat="45.21779" lon="5.41541">
        <ele>303.9</ele>
        <time>2000-01-01T01:08:05.000Z</time>
      </trkpt>
      <trkpt lat="45.21782" lon="5.41543">
        <ele>304.2</ele>
        <time>2000-01-01T01:08:15.000Z</time>
      </trkpt>
      <trkpt lat="45.21789" lon="5.41549">
        <ele>304.8</ele>
        <time>2000-01-01T01:08:25.000Z</time>
      </trkpt>
      <trkpt lat="45.21808" lon="5.41563">
        <ele>314</ele>
        <time>2000-01-01T01:08:35.000Z</time>
      </trkpt>
      <trkpt lat="45.21831" lon="5.41574">
        <ele>320</ele>
        <time>2000-01-01T01:08:45.000Z</time>
      </trkpt>
      <trkpt lat="45.21862" lon="5.41592">
        <ele>320</ele>
        <time>2000-01-01T01:08:55.000Z</time>
      </trkpt>
      <trkpt lat="45.21866" lon="5.41596">
        <ele>304.2</ele>
        <time>2000-01-01T01:09:05.000Z</time>
      </trkpt>
      <trkpt lat="45.21873" lon="5.4161">
        <ele>305.2</ele>
        <time>2000-01-01T01:09:15.000Z</time>
      </trkpt>
      <trkpt lat="45.21882" lon="5.41622">
        <ele>322</ele>
        <time>2000-01-01T01:09:25.000Z</time>
      </trkpt>
      <trkpt lat="45.21891" lon="5.41641">
        <ele>307.6</ele>
        <time>2000-01-01T01:09:35.000Z</time>
      </trkpt>
      <trkpt lat="45.21897" lon="5.41651">
        <ele>325</ele>
        <time>2000-01-01T01:09:45.000Z</time>
      </trkpt>
      <trkpt lat="45.21916" lon="5.41677">
        <ele>326</ele>
        <time>2000-01-01T01:09:55.000Z</time>
      </trkpt>
      <trkpt lat="45.21926" lon="5.41693">
        <ele>313.6</ele>
        <time>2000-01-01T01:10:05.000Z</time>
      </trkpt>
      <trkpt lat="45.21941" lon="5.41711">
        <ele>334</ele>
        <time>2000-01-01T01:10:15.000Z</time>
      </trkpt>
      <trkpt lat="45.21948" lon="5.41722">
        <ele>312.6</ele>
        <time>2000-01-01T01:10:25.000Z</time>
      </trkpt>
      <trkpt lat="45.21962" lon="5.4175">
        <ele>340</ele>
        <time>2000-01-01T01:10:35.000Z</time>
      </trkpt>
      <trkpt lat="45.21965" lon="5.41758">
        <ele>315.9</ele>
        <time>2000-01-01T01:10:45.000Z</time>
      </trkpt>
      <trkpt lat="45.21968" lon="5.41775">
        <ele>341</ele>
        <time>2000-01-01T01:10:55.000Z</time>
      </trkpt>
      <trkpt lat="45.21969" lon="5.41784">
        <ele>317.2</ele>
        <time>2000-01-01T01:11:05.000Z</time>
      </trkpt>
      <trkpt lat="45.2197" lon="5.41794">
        <ele>318.4</ele>
        <time>2000-01-01T01:11:15.000Z</time>
      </trkpt>
      <trkpt lat="45.21971" lon="5.41798">
        <ele>318.5</ele>
        <time>2000-01-01T01:11:25.000Z</time>
      </trkpt>
      <trkpt lat="45.21972" lon="5.41802">
        <ele>343</ele>
        <time>2000-01-01T01:11:35.000Z</time>
      </trkpt>
      <trkpt lat="45.21978" lon="5.41814">
        <ele>320.1</ele>
        <time>2000-01-01T01:11:45.000Z</time>
      </trkpt>
      <trkpt lat="45.2198" lon="5.4182">
        <ele>320.8</ele>
        <time>2000-01-01T01:11:55.000Z</time>
      </trkpt>
      <trkpt lat="45.21986" lon="5.41842">
        <ele>343</ele>
        <time>2000-01-01T01:12:05.000Z</time>
      </trkpt>
      <trkpt lat="45.21988" lon="5.4185">
        <ele>324.8</ele>
        <time>2000-01-01T01:12:15.000Z</time>
      </trkpt>
      <trkpt lat="45.21998" lon="5.41866">
        <ele>344</ele>
        <time>2000-01-01T01:12:25.000Z</time>
      </trkpt>
      <trkpt lat="45.22005" lon="5.41881">
        <ele>327.4</ele>
        <time>2000-01-01T01:12:35.000Z</time>
      </trkpt>
      <trkpt lat="45.22011" lon="5.41896">
        <ele>344</ele>
        <time>2000-01-01T01:12:45.000Z</time>
      </trkpt>
      <trkpt lat="45.22016" lon="5.41906">
        <ele>330.7</ele>
        <time>2000-01-01T01:12:55.000Z</time>
      </trkpt>
      <trkpt lat="45.2203" lon="5.41926">
        <ele>344</ele>
        <time>2000-01-01T01:13:05.000Z</time>
      </trkpt>
      <trkpt lat="45.22048" lon="5.41953">
        <ele>343</ele>
        <time>2000-01-01T01:13:15.000Z</time>
      </trkpt>
      <trkpt lat="45.22055" lon="5.41964">
        <ele>335.6</ele>
        <time>2000-01-01T01:13:25.000Z</time>
      </trkpt>
      <trkpt lat="45.22059" lon="5.41971">
        <ele>336.4</ele>
        <time>2000-01-01T01:13:35.000Z</time>
      </trkpt>
      <trkpt lat="45.22064" lon="5.41985">
        <ele>343</ele>
        <time>2000-01-01T01:13:45.000Z</time>
      </trkpt>
      <trkpt lat="45.22066" lon="5.41994">
        <ele>338.7</ele>
        <time>2000-01-01T01:13:55.000Z</time>
      </trkpt>
      <trkpt lat="45.22071" lon="5.42025">
        <ele>346</ele>
        <time>2000-01-01T01:14:05.000Z</time>
      </trkpt>
      <trkpt lat="45.22074" lon="5.42034">
        <ele>341.4</ele>
        <time>2000-01-01T01:14:15.000Z</time>
      </trkpt>
      <trkpt lat="45.22077" lon="5.42041">
        <ele>341.6</ele>
        <time>2000-01-01T01:14:25.000Z</time>
      </trkpt>
      <trkpt lat="45.22081" lon="5.42048">
        <ele>341.6</ele>
        <time>2000-01-01T01:14:35.000Z</time>
      </trkpt>
      <trkpt lat="45.22092" lon="5.42063">
        <ele>350</ele>
        <time>2000-01-01T01:14:45.000Z</time>
      </trkpt>
      <trkpt lat="45.22102" lon="5.42079">
        <ele>344</ele>
        <time>2000-01-01T01:14:55.000Z</time>
      </trkpt>
      <trkpt lat="45.22111" lon="5.42089">
        <ele>352</ele>
        <time>2000-01-01T01:15:05.000Z</time>
      </trkpt>
      <trkpt lat="45.22112" lon="5.42094">
        <ele>344.8</ele>
        <time>2000-01-01T01:15:15.000Z</time>
      </trkpt>
      <trkpt lat="45.22112" lon="5.42095">
        <ele>344.9</ele>
        <time>2000-01-01T01:15:25.000Z</time>
      </trkpt>
      <trkpt lat="45.2211" lon="5.42096">
        <ele>345</ele>
        <time>2000-01-01T01:15:35.000Z</time>
      </trkpt>
      <trkpt lat="45.22108" lon="5.42096">
        <ele>345</ele>
        <time>2000-01-01T01:15:45.000Z</time>
      </trkpt>
      <trkpt lat="45.22105" lon="5.42094">
        <ele>345</ele>
        <time>2000-01-01T01:15:55.000Z</time>
      </trkpt>
      <trkpt lat="45.22089" lon="5.42077">
        <ele>355</ele>
        <time>2000-01-01T01:16:05.000Z</time>
      </trkpt>
      <trkpt lat="45.22076" lon="5.42062">
        <ele>344</ele>
        <time>2000-01-01T01:16:15.000Z</time>
      </trkpt>
      <trkpt lat="45.22063" lon="5.4205">
        <ele>353</ele>
        <time>2000-01-01T01:16:25.000Z</time>
      </trkpt>
      <trkpt lat="45.22059" lon="5.42044">
        <ele>345.1</ele>
        <time>2000-01-01T01:16:35.000Z</time>
      </trkpt>
      <trkpt lat="45.22052" lon="5.42027">
        <ele>351</ele>
        <time>2000-01-01T01:16:45.000Z</time>
      </trkpt>
      <trkpt lat="45.22045" lon="5.42015">
        <ele>345.1</ele>
        <time>2000-01-01T01:16:55.000Z</time>
      </trkpt>
      <trkpt lat="45.22039" lon="5.42007">
        <ele>351</ele>
        <time>2000-01-01T01:17:05.000Z</time>
      </trkpt>
      <trkpt lat="45.22023" lon="5.41992">
        <ele>351</ele>
        <time>2000-01-01T01:17:15.000Z</time>
      </trkpt>
      <trkpt lat="45.22013" lon="5.41981">
        <ele>348</ele>
        <time>2000-01-01T01:17:25.000Z</time>
      </trkpt>
      <trkpt lat="45.22009" lon="5.41974">
        <ele>348</ele>
        <time>2000-01-01T01:17:35.000Z</time>
      </trkpt>
      <trkpt lat="45.22008" lon="5.41965">
        <ele>349</ele>
        <time>2000-01-01T01:17:45.000Z</time>
      </trkpt>
      <trkpt lat="45.22006" lon="5.41958">
        <ele>345.4</ele>
        <time>2000-01-01T01:17:55.000Z</time>
      </trkpt>
      <trkpt lat="45.22003" lon="5.41952">
        <ele>344.9</ele>
        <time>2000-01-01T01:18:05.000Z</time>
      </trkpt>
      <trkpt lat="45.21997" lon="5.41943">
        <ele>344.7</ele>
        <time>2000-01-01T01:18:15.000Z</time>
      </trkpt>
      <trkpt lat="45.2199" lon="5.4193">
        <ele>349</ele>
        <time>2000-01-01T01:18:25.000Z</time>
      </trkpt>
      <trkpt lat="45.21986" lon="5.41923">
        <ele>344</ele>
        <time>2000-01-01T01:18:35.000Z</time>
      </trkpt>
      <trkpt lat="45.21972" lon="5.4191">
        <ele>350</ele>
        <time>2000-01-01T01:18:45.000Z</time>
      </trkpt>
      <trkpt lat="45.21965" lon="5.41901">
        <ele>346.1</ele>
        <time>2000-01-01T01:18:55.000Z</time>
      </trkpt>
      <trkpt lat="45.21956" lon="5.41886">
        <ele>350</ele>
        <time>2000-01-01T01:19:05.000Z</time>
      </trkpt>
      <trkpt lat="45.2195" lon="5.41876">
        <ele>346.3</ele>
        <time>2000-01-01T01:19:15.000Z</time>
      </trkpt>
      <trkpt lat="45.21941" lon="5.4186">
        <ele>350</ele>
        <time>2000-01-01T01:19:25.000Z</time>
      </trkpt>
      <trkpt lat="45.21936" lon="5.41847">
        <ele>346.8</ele>
        <time>2000-01-01T01:19:35.000Z</time>
      </trkpt>
      <trkpt lat="45.2193" lon="5.4182">
        <ele>348</ele>
        <time>2000-01-01T01:19:45.000Z</time>
      </trkpt>
      <trkpt lat="45.21922" lon="5.41798">
        <ele>344</ele>
        <time>2000-01-01T01:19:55.000Z</time>
      </trkpt>
      <trkpt lat="45.21917" lon="5.41788">
        <ele>349</ele>
        <time>2000-01-01T01:20:05.000Z</time>
      </trkpt>
      <trkpt lat="45.21907" lon="5.41769">
        <ele>343.3</ele>
        <time>2000-01-01T01:20:15.000Z</time>
      </trkpt>
      <trkpt lat="45.219" lon="5.41753">
        <ele>350</ele>
        <time>2000-01-01T01:20:25.000Z</time>
      </trkpt>
      <trkpt lat="45.21895" lon="5.41745">
        <ele>342.3</ele>
        <time>2000-01-01T01:20:35.000Z</time>
      </trkpt>
      <trkpt lat="45.21889" lon="5.41738">
        <ele>343.1</ele>
        <time>2000-01-01T01:20:45.000Z</time>
      </trkpt>
      <trkpt lat="45.21874" lon="5.41722">
        <ele>349</ele>
        <time>2000-01-01T01:20:55.000Z</time>
      </trkpt>
      <trkpt lat="45.21864" lon="5.41709">
        <ele>341.2</ele>
        <time>2000-01-01T01:21:05.000Z</time>
      </trkpt>
      <trkpt lat="45.2186" lon="5.41704">
        <ele>340.6</ele>
        <time>2000-01-01T01:21:15.000Z</time>
      </trkpt>
      <trkpt lat="45.21855" lon="5.41701">
        <ele>351</ele>
        <time>2000-01-01T01:21:25.000Z</time>
      </trkpt>
      <trkpt lat="45.21851" lon="5.417">
        <ele>341</ele>
        <time>2000-01-01T01:21:35.000Z</time>
      </trkpt>
      <trkpt lat="45.21846" lon="5.417">
        <ele>342</ele>
        <time>2000-01-01T01:21:45.000Z</time>
      </trkpt>
      <trkpt lat="45.21843" lon="5.41703">
        <ele>343.2</ele>
        <time>2000-01-01T01:21:55.000Z</time>
      </trkpt>
      <trkpt lat="45.2184" lon="5.41709">
        <ele>344.8</ele>
        <time>2000-01-01T01:22:05.000Z</time>
      </trkpt>
      <trkpt lat="45.21839" lon="5.41712">
        <ele>354</ele>
        <time>2000-01-01T01:22:15.000Z</time>
      </trkpt>
      <trkpt lat="45.21836" lon="5.41728">
        <ele>347.5</ele>
        <time>2000-01-01T01:22:25.000Z</time>
      </trkpt>
      <trkpt lat="45.21831" lon="5.41742">
        <ele>356</ele>
        <time>2000-01-01T01:22:35.000Z</time>
      </trkpt>
      <trkpt lat="45.21831" lon="5.41749">
        <ele>348.5</ele>
        <time>2000-01-01T01:22:45.000Z</time>
      </trkpt>
      <trkpt lat="45.21834" lon="5.41763">
        <ele>349.6</ele>
        <time>2000-01-01T01:22:55.000Z</time>
      </trkpt>
      <trkpt lat="45.21835" lon="5.41775">
        <ele>356</ele>
        <time>2000-01-01T01:23:05.000Z</time>
      </trkpt>
      <trkpt lat="45.21837" lon="5.41794">
        <ele>351.7</ele>
        <time>2000-01-01T01:23:15.000Z</time>
      </trkpt>
      <trkpt lat="45.21837" lon="5.418">
        <ele>351.9</ele>
        <time>2000-01-01T01:23:25.000Z</time>
      </trkpt>
      <trkpt lat="45.21834" lon="5.41823">
        <ele>355</ele>
        <time>2000-01-01T01:23:35.000Z</time>
      </trkpt>
      <trkpt lat="45.21829" lon="5.41854">
        <ele>355</ele>
        <time>2000-01-01T01:23:45.000Z</time>
      </trkpt>
      <trkpt lat="45.21828" lon="5.41865">
        <ele>349.1</ele>
        <time>2000-01-01T01:23:55.000Z</time>
      </trkpt>
      <trkpt lat="45.2183" lon="5.41901">
        <ele>354</ele>
        <time>2000-01-01T01:24:05.000Z</time>
      </trkpt>
      <trkpt lat="45.21832" lon="5.41934">
        <ele>354</ele>
        <time>2000-01-01T01:24:15.000Z</time>
      </trkpt>
      <trkpt lat="45.21833" lon="5.41948">
        <ele>351.1</ele>
        <time>2000-01-01T01:24:25.000Z</time>
      </trkpt>
      <trkpt lat="45.21833" lon="5.42026">
        <ele>363</ele>
        <time>2000-01-01T01:24:35.000Z</time>
      </trkpt>
      <trkpt lat="45.21833" lon="5.42059">
        <ele>364</ele>
        <time>2000-01-01T01:24:45.000Z</time>
      </trkpt>
      <trkpt lat="45.21832" lon="5.42093">
        <ele>363</ele>
        <time>2000-01-01T01:24:55.000Z</time>
      </trkpt>
      <trkpt lat="45.21833" lon="5.42119">
        <ele>356.3</ele>
        <time>2000-01-01T01:25:05.000Z</time>
      </trkpt>
      <trkpt lat="45.21834" lon="5.4213">
        <ele>363</ele>
        <time>2000-01-01T01:25:15.000Z</time>
      </trkpt>
      <trkpt lat="45.21836" lon="5.42141">
        <ele>355.7</ele>
        <time>2000-01-01T01:25:25.000Z</time>
      </trkpt>
      <trkpt lat="45.21843" lon="5.42162">
        <ele>365</ele>
        <time>2000-01-01T01:25:35.000Z</time>
      </trkpt>
      <trkpt lat="45.21845" lon="5.42168">
        <ele>354.4</ele>
        <time>2000-01-01T01:25:45.000Z</time>
      </trkpt>
      <trkpt lat="45.21847" lon="5.42169">
        <ele>354.7</ele>
        <time>2000-01-01T01:25:55.000Z</time>
      </trkpt>
      <trkpt lat="45.21857" lon="5.42173">
        <ele>356.2</ele>
        <time>2000-01-01T01:26:05.000Z</time>
      </trkpt>
      <trkpt lat="45.21862" lon="5.42176">
        <ele>363</ele>
        <time>2000-01-01T01:26:15.000Z</time>
      </trkpt>
      <trkpt lat="45.21867" lon="5.42182">
        <ele>357.3</ele>
        <time>2000-01-01T01:26:25.000Z</time>
      </trkpt>
      <trkpt lat="45.2187" lon="5.42188">
        <ele>357</ele>
        <time>2000-01-01T01:26:35.000Z</time>
      </trkpt>
      <trkpt lat="45.21898" lon="5.42257">
        <ele>363</ele>
        <time>2000-01-01T01:26:45.000Z</time>
      </trkpt>
      <trkpt lat="45.21905" lon="5.42281">
        <ele>356.3</ele>
        <time>2000-01-01T01:26:55.000Z</time>
      </trkpt>
      <trkpt lat="45.21912" lon="5.42305">
        <ele>363</ele>
        <time>2000-01-01T01:27:05.000Z</time>
      </trkpt>
      <trkpt lat="45.21913" lon="5.42311">
        <ele>355.9</ele>
        <time>2000-01-01T01:27:15.000Z</time>
      </trkpt>
      <trkpt lat="45.21913" lon="5.42317">
        <ele>355.5</ele>
        <time>2000-01-01T01:27:25.000Z</time>
      </trkpt>
      <trkpt lat="45.21912" lon="5.42321">
        <ele>355</ele>
        <time>2000-01-01T01:27:35.000Z</time>
      </trkpt>
      <trkpt lat="45.2191" lon="5.42325">
        <ele>354.4</ele>
        <time>2000-01-01T01:27:45.000Z</time>
      </trkpt>
      <trkpt lat="45.21902" lon="5.42331">
        <ele>354</ele>
        <time>2000-01-01T01:27:55.000Z</time>
      </trkpt>
      <trkpt lat="45.2188" lon="5.42347">
        <ele>352</ele>
        <time>2000-01-01T01:28:05.000Z</time>
      </trkpt>
      <trkpt lat="45.21875" lon="5.42351">
        <ele>347.5</ele>
        <time>2000-01-01T01:28:15.000Z</time>
      </trkpt>
      <trkpt lat="45.21874" lon="5.42354">
        <ele>347.3</ele>
        <time>2000-01-01T01:28:25.000Z</time>
      </trkpt>
      <trkpt lat="45.21873" lon="5.42356">
        <ele>347.1</ele>
        <time>2000-01-01T01:28:35.000Z</time>
      </trkpt>
      <trkpt lat="45.21873" lon="5.42359">
        <ele>347</ele>
        <time>2000-01-01T01:28:45.000Z</time>
      </trkpt>
      <trkpt lat="45.21873" lon="5.42362">
        <ele>346.8</ele>
        <time>2000-01-01T01:28:55.000Z</time>
      </trkpt>
      <trkpt lat="45.21875" lon="5.42367">
        <ele>346.7</ele>
        <time>2000-01-01T01:29:05.000Z</time>
      </trkpt>
      <trkpt lat="45.21883" lon="5.42374">
        <ele>353</ele>
        <time>2000-01-01T01:29:15.000Z</time>
      </trkpt>
      <trkpt lat="45.21882" lon="5.42374">
        <ele>346.9</ele>
        <time>2000-01-01T01:29:25.000Z</time>
      </trkpt>
      <trkpt lat="45.21889" lon="5.42379">
        <ele>347.4</ele>
        <time>2000-01-01T01:29:35.000Z</time>
      </trkpt>
      <trkpt lat="45.21919" lon="5.42396">
        <ele>355</ele>
        <time>2000-01-01T01:29:45.000Z</time>
      </trkpt>
      <trkpt lat="45.2194" lon="5.42409">
        <ele>355</ele>
        <time>2000-01-01T01:29:55.000Z</time>
      </trkpt>
      <trkpt lat="45.21944" lon="5.42411">
        <ele>347.6</ele>
        <time>2000-01-01T01:30:05.000Z</time>
      </trkpt>
      <trkpt lat="45.21951" lon="5.42413">
        <ele>346.3</ele>
        <time>2000-01-01T01:30:15.000Z</time>
      </trkpt>
      <trkpt lat="45.21956" lon="5.42414">
        <ele>345.3</ele>
        <time>2000-01-01T01:30:25.000Z</time>
      </trkpt>
      <trkpt lat="45.21965" lon="5.42414">
        <ele>365</ele>
        <time>2000-01-01T01:30:35.000Z</time>
      </trkpt>
      <trkpt lat="45.21981" lon="5.4241">
        <ele>343.9</ele>
        <time>2000-01-01T01:30:45.000Z</time>
      </trkpt>
      <trkpt lat="45.22008" lon="5.42407">
        <ele>374</ele>
        <time>2000-01-01T01:30:55.000Z</time>
      </trkpt>
      <trkpt lat="45.22014" lon="5.42404">
        <ele>343.2</ele>
        <time>2000-01-01T01:31:05.000Z</time>
      </trkpt>
      <trkpt lat="45.22019" lon="5.42399">
        <ele>345</ele>
        <time>2000-01-01T01:31:15.000Z</time>
      </trkpt>
      <trkpt lat="45.22034" lon="5.42379">
        <ele>374</ele>
        <time>2000-01-01T01:31:25.000Z</time>
      </trkpt>
      <trkpt lat="45.22038" lon="5.42374">
        <ele>350.9</ele>
        <time>2000-01-01T01:31:35.000Z</time>
      </trkpt>
      <trkpt lat="45.22067" lon="5.42342">
        <ele>363</ele>
        <time>2000-01-01T01:31:45.000Z</time>
      </trkpt>
      <trkpt lat="45.22074" lon="5.42333">
        <ele>351.1</ele>
        <time>2000-01-01T01:31:55.000Z</time>
      </trkpt>
      <trkpt lat="45.22088" lon="5.42313">
        <ele>359</ele>
        <time>2000-01-01T01:32:05.000Z</time>
      </trkpt>
      <trkpt lat="45.22107" lon="5.42286">
        <ele>356</ele>
        <time>2000-01-01T01:32:15.000Z</time>
      </trkpt>
      <trkpt lat="45.22116" lon="5.42275">
        <ele>349.9</ele>
        <time>2000-01-01T01:32:25.000Z</time>
      </trkpt>
      <trkpt lat="45.22129" lon="5.42261">
        <ele>353</ele>
        <time>2000-01-01T01:32:35.000Z</time>
      </trkpt>
      <trkpt lat="45.2215" lon="5.42235">
        <ele>353</ele>
        <time>2000-01-01T01:32:45.000Z</time>
      </trkpt>
      <trkpt lat="45.22178" lon="5.422">
        <ele>353</ele>
        <time>2000-01-01T01:32:55.000Z</time>
      </trkpt>
      <trkpt lat="45.22189" lon="5.42189">
        <ele>352.4</ele>
        <time>2000-01-01T01:33:05.000Z</time>
      </trkpt>
      <trkpt lat="45.22203" lon="5.4218">
        <ele>356</ele>
        <time>2000-01-01T01:33:15.000Z</time>
      </trkpt>
      <trkpt lat="45.22215" lon="5.42169">
        <ele>354.5</ele>
        <time>2000-01-01T01:33:25.000Z</time>
      </trkpt>
      <trkpt lat="45.2222" lon="5.42167">
        <ele>358</ele>
        <time>2000-01-01T01:33:35.000Z</time>
      </trkpt>
      <trkpt lat="45.22226" lon="5.42169">
        <ele>355.7</ele>
        <time>2000-01-01T01:33:45.000Z</time>
      </trkpt>
      <trkpt lat="45.22228" lon="5.42168">
        <ele>356.1</ele>
        <time>2000-01-01T01:33:55.000Z</time>
      </trkpt>
      <trkpt lat="45.22228" lon="5.42169">
        <ele>356.1</ele>
        <time>2000-01-01T01:34:05.000Z</time>
      </trkpt>
      <trkpt lat="45.22229" lon="5.42176">
        <ele>356.4</ele>
        <time>2000-01-01T01:34:15.000Z</time>
      </trkpt>
      <trkpt lat="45.22234" lon="5.42184">
        <ele>358</ele>
        <time>2000-01-01T01:34:25.000Z</time>
      </trkpt>
      <trkpt lat="45.22237" lon="5.42193">
        <ele>357.6</ele>
        <time>2000-01-01T01:34:35.000Z</time>
      </trkpt>
      <trkpt lat="45.22242" lon="5.42208">
        <ele>357.6</ele>
        <time>2000-01-01T01:34:45.000Z</time>
      </trkpt>
      <trkpt lat="45.22245" lon="5.42221">
        <ele>363</ele>
        <time>2000-01-01T01:34:55.000Z</time>
      </trkpt>
      <trkpt lat="45.22249" lon="5.42237">
        <ele>357.4</ele>
        <time>2000-01-01T01:35:05.000Z</time>
      </trkpt>
      <trkpt lat="45.22251" lon="5.42259">
        <ele>363</ele>
        <time>2000-01-01T01:35:15.000Z</time>
      </trkpt>
      <trkpt lat="45.22253" lon="5.42263">
        <ele>357.7</ele>
        <time>2000-01-01T01:35:25.000Z</time>
      </trkpt>
      <trkpt lat="45.22254" lon="5.42263">
        <ele>357.9</ele>
        <time>2000-01-01T01:35:35.000Z</time>
      </trkpt>
      <trkpt lat="45.22256" lon="5.42261">
        <ele>358.4</ele>
        <time>2000-01-01T01:35:45.000Z</time>
      </trkpt>
      <trkpt lat="45.22258" lon="5.42259">
        <ele>358.9</ele>
        <time>2000-01-01T01:35:55.000Z</time>
      </trkpt>
      <trkpt lat="45.2226" lon="5.42254">
        <ele>359.5</ele>
        <time>2000-01-01T01:36:05.000Z</time>
      </trkpt>
      <trkpt lat="45.22262" lon="5.42244">
        <ele>363</ele>
        <time>2000-01-01T01:36:15.000Z</time>
      </trkpt>
      <trkpt lat="45.22266" lon="5.42236">
        <ele>361.5</ele>
        <time>2000-01-01T01:36:25.000Z</time>
      </trkpt>
      <trkpt lat="45.2227" lon="5.42228">
        <ele>362.8</ele>
        <time>2000-01-01T01:36:35.000Z</time>
      </trkpt>
      <trkpt lat="45.22275" lon="5.42222">
        <ele>367</ele>
        <time>2000-01-01T01:36:45.000Z</time>
      </trkpt>
      <trkpt lat="45.2228" lon="5.42216">
        <ele>365.2</ele>
        <time>2000-01-01T01:36:55.000Z</time>
      </trkpt>
      <trkpt lat="45.22286" lon="5.42211">
        <ele>366.1</ele>
        <time>2000-01-01T01:37:05.000Z</time>
      </trkpt>
      <trkpt lat="45.2229" lon="5.42209">
        <ele>366.7</ele>
        <time>2000-01-01T01:37:15.000Z</time>
      </trkpt>
      <trkpt lat="45.22315" lon="5.42227">
        <ele>374</ele>
        <time>2000-01-01T01:37:25.000Z</time>
      </trkpt>
      <trkpt lat="45.22346" lon="5.4224">
        <ele>377</ele>
        <time>2000-01-01T01:37:35.000Z</time>
      </trkpt>
      <trkpt lat="45.22355" lon="5.42243">
        <ele>375.5</ele>
        <time>2000-01-01T01:37:45.000Z</time>
      </trkpt>
      <trkpt lat="45.22369" lon="5.42245">
        <ele>383</ele>
        <time>2000-01-01T01:37:55.000Z</time>
      </trkpt>
      <trkpt lat="45.22382" lon="5.4225">
        <ele>379</ele>
        <time>2000-01-01T01:38:05.000Z</time>
      </trkpt>
      <trkpt lat="45.22388" lon="5.42251">
        <ele>388</ele>
        <time>2000-01-01T01:38:15.000Z</time>
      </trkpt>
      <trkpt lat="45.22403" lon="5.42249">
        <ele>381.6</ele>
        <time>2000-01-01T01:38:25.000Z</time>
      </trkpt>
      <trkpt lat="45.22407" lon="5.42247">
        <ele>388</ele>
        <time>2000-01-01T01:38:35.000Z</time>
      </trkpt>
      <trkpt lat="45.22411" lon="5.42245">
        <ele>382.7</ele>
        <time>2000-01-01T01:38:45.000Z</time>
      </trkpt>
      <trkpt lat="45.22422" lon="5.42237">
        <ele>384.7</ele>
        <time>2000-01-01T01:38:55.000Z</time>
      </trkpt>
      <trkpt lat="45.2243" lon="5.42235">
        <ele>393</ele>
        <time>2000-01-01T01:39:05.000Z</time>
      </trkpt>
      <trkpt lat="45.22436" lon="5.42235">
        <ele>386.8</ele>
        <time>2000-01-01T01:39:15.000Z</time>
      </trkpt>
      <trkpt lat="45.22442" lon="5.42236">
        <ele>387.6</ele>
        <time>2000-01-01T01:39:25.000Z</time>
      </trkpt>
      <trkpt lat="45.22447" lon="5.42239">
        <ele>388.4</ele>
        <time>2000-01-01T01:39:35.000Z</time>
      </trkpt>
      <trkpt lat="45.22466" lon="5.42252">
        <ele>399</ele>
        <time>2000-01-01T01:39:45.000Z</time>
      </trkpt>
      <trkpt lat="45.22478" lon="5.42259">
        <ele>392.6</ele>
        <time>2000-01-01T01:39:55.000Z</time>
      </trkpt>
      <trkpt lat="45.22486" lon="5.42263">
        <ele>399</ele>
        <time>2000-01-01T01:40:05.000Z</time>
      </trkpt>
      <trkpt lat="45.22494" lon="5.42265">
        <ele>395</ele>
        <time>2000-01-01T01:40:15.000Z</time>
      </trkpt>
      <trkpt lat="45.22514" lon="5.42266">
        <ele>403</ele>
        <time>2000-01-01T01:40:25.000Z</time>
      </trkpt>
      <trkpt lat="45.22533" lon="5.42269">
        <ele>413</ele>
        <time>2000-01-01T01:40:35.000Z</time>
      </trkpt>
      <trkpt lat="45.22545" lon="5.42268">
        <ele>403</ele>
        <time>2000-01-01T01:40:45.000Z</time>
      </trkpt>
      <trkpt lat="45.2255" lon="5.42269">
        <ele>403.9</ele>
        <time>2000-01-01T01:40:55.000Z</time>
      </trkpt>
      <trkpt lat="45.22556" lon="5.42271">
        <ele>419</ele>
        <time>2000-01-01T01:41:05.000Z</time>
      </trkpt>
      <trkpt lat="45.22563" lon="5.42275">
        <ele>407</ele>
        <time>2000-01-01T01:41:15.000Z</time>
      </trkpt>
      <trkpt lat="45.22573" lon="5.42282">
        <ele>409.7</ele>
        <time>2000-01-01T01:41:25.000Z</time>
      </trkpt>
      <trkpt lat="45.22575" lon="5.42285">
        <ele>425</ele>
        <time>2000-01-01T01:41:35.000Z</time>
      </trkpt>
      <trkpt lat="45.2258" lon="5.42285">
        <ele>411.8</ele>
        <time>2000-01-01T01:41:45.000Z</time>
      </trkpt>
      <trkpt lat="45.22588" lon="5.42283">
        <ele>414.8</ele>
        <time>2000-01-01T01:41:55.000Z</time>
      </trkpt>
      <trkpt lat="45.22604" lon="5.42289">
        <ele>428</ele>
        <time>2000-01-01T01:42:05.000Z</time>
      </trkpt>
      <trkpt lat="45.22609" lon="5.42292">
        <ele>420.7</ele>
        <time>2000-01-01T01:42:15.000Z</time>
      </trkpt>
      <trkpt lat="45.2261" lon="5.42294">
        <ele>420.9</ele>
        <time>2000-01-01T01:42:25.000Z</time>
      </trkpt>
      <trkpt lat="45.22611" lon="5.42298">
        <ele>420.8</ele>
        <time>2000-01-01T01:42:35.000Z</time>
      </trkpt>
      <trkpt lat="45.2261" lon="5.42306">
        <ele>419.6</ele>
        <time>2000-01-01T01:42:45.000Z</time>
      </trkpt>
      <trkpt lat="45.22607" lon="5.42321">
        <ele>432</ele>
        <time>2000-01-01T01:42:55.000Z</time>
      </trkpt>
      <trkpt lat="45.22607" lon="5.42326">
        <ele>416.9</ele>
        <time>2000-01-01T01:43:05.000Z</time>
      </trkpt>
      <trkpt lat="45.22608" lon="5.4233">
        <ele>417</ele>
        <time>2000-01-01T01:43:15.000Z</time>
      </trkpt>
      <trkpt lat="45.22612" lon="5.42341">
        <ele>417.6</ele>
        <time>2000-01-01T01:43:25.000Z</time>
      </trkpt>
      <trkpt lat="45.22613" lon="5.42348">
        <ele>432</ele>
        <time>2000-01-01T01:43:35.000Z</time>
      </trkpt>
      <trkpt lat="45.22613" lon="5.42352">
        <ele>416.8</ele>
        <time>2000-01-01T01:43:45.000Z</time>
      </trkpt>
      <trkpt lat="45.22612" lon="5.42355">
        <ele>416.1</ele>
        <time>2000-01-01T01:43:55.000Z</time>
      </trkpt>
      <trkpt lat="45.22607" lon="5.42365">
        <ele>413</ele>
        <time>2000-01-01T01:44:05.000Z</time>
      </trkpt>
      <trkpt lat="45.22605" lon="5.42372">
        <ele>411.5</ele>
        <time>2000-01-01T01:44:15.000Z</time>
      </trkpt>
      <trkpt lat="45.22604" lon="5.42378">
        <ele>431</ele>
        <time>2000-01-01T01:44:25.000Z</time>
      </trkpt>
      <trkpt lat="45.22604" lon="5.42387">
        <ele>409.6</ele>
        <time>2000-01-01T01:44:35.000Z</time>
      </trkpt>
      <trkpt lat="45.22612" lon="5.4242">
        <ele>424</ele>
        <time>2000-01-01T01:44:45.000Z</time>
      </trkpt>
      <trkpt lat="45.22616" lon="5.42434">
        <ele>406.2</ele>
        <time>2000-01-01T01:44:55.000Z</time>
      </trkpt>
      <trkpt lat="45.22619" lon="5.42441">
        <ele>406.1</ele>
        <time>2000-01-01T01:45:05.000Z</time>
      </trkpt>
      <trkpt lat="45.22627" lon="5.42458">
        <ele>425</ele>
        <time>2000-01-01T01:45:15.000Z</time>
      </trkpt>
      <trkpt lat="45.22633" lon="5.42473">
        <ele>404.9</ele>
        <time>2000-01-01T01:45:25.000Z</time>
      </trkpt>
      <trkpt lat="45.22638" lon="5.42481">
        <ele>424</ele>
        <time>2000-01-01T01:45:35.000Z</time>
      </trkpt>
      <trkpt lat="45.22644" lon="5.42488">
        <ele>405.8</ele>
        <time>2000-01-01T01:45:45.000Z</time>
      </trkpt>
      <trkpt lat="45.22647" lon="5.42492">
        <ele>406</ele>
        <time>2000-01-01T01:45:55.000Z</time>
      </trkpt>
      <trkpt lat="45.22651" lon="5.42494">
        <ele>406.7</ele>
        <time>2000-01-01T01:46:05.000Z</time>
      </trkpt>
      <trkpt lat="45.22655" lon="5.42496">
        <ele>424</ele>
        <time>2000-01-01T01:46:15.000Z</time>
      </trkpt>
      <trkpt lat="45.22667" lon="5.42495">
        <ele>410.6</ele>
        <time>2000-01-01T01:46:25.000Z</time>
      </trkpt>
      <trkpt lat="45.22682" lon="5.42496">
        <ele>430</ele>
        <time>2000-01-01T01:46:35.000Z</time>
      </trkpt>
      <trkpt lat="45.227" lon="5.42495">
        <ele>425.8</ele>
        <time>2000-01-01T01:46:45.000Z</time>
      </trkpt>
      <trkpt lat="45.22708" lon="5.42496">
        <ele>438</ele>
        <time>2000-01-01T01:46:55.000Z</time>
      </trkpt>
      <trkpt lat="45.22719" lon="5.42494">
        <ele>434</ele>
        <time>2000-01-01T01:47:05.000Z</time>
      </trkpt>
      <trkpt lat="45.22726" lon="5.42495">
        <ele>436.3</ele>
        <time>2000-01-01T01:47:15.000Z</time>
      </trkpt>
      <trkpt lat="45.2274" lon="5.42499">
        <ele>458</ele>
        <time>2000-01-01T01:47:25.000Z</time>
      </trkpt>
      <trkpt lat="45.22744" lon="5.42502">
        <ele>440.4</ele>
        <time>2000-01-01T01:47:35.000Z</time>
      </trkpt>
      <trkpt lat="45.22753" lon="5.42511">
        <ele>440.6</ele>
        <time>2000-01-01T01:47:45.000Z</time>
      </trkpt>
      <trkpt lat="45.22762" lon="5.42516">
        <ele>458</ele>
        <time>2000-01-01T01:47:55.000Z</time>
      </trkpt>
      <trkpt lat="45.22767" lon="5.42519">
        <ele>442</ele>
        <time>2000-01-01T01:48:05.000Z</time>
      </trkpt>
      <trkpt lat="45.22778" lon="5.4253">
        <ele>460</ele>
        <time>2000-01-01T01:48:15.000Z</time>
      </trkpt>
      <trkpt lat="45.22781" lon="5.42532">
        <ele>442.1</ele>
        <time>2000-01-01T01:48:25.000Z</time>
      </trkpt>
      <trkpt lat="45.22793" lon="5.42533">
        <ele>444.1</ele>
        <time>2000-01-01T01:48:35.000Z</time>
      </trkpt>
      <trkpt lat="45.22796" lon="5.42534">
        <ele>444.3</ele>
        <time>2000-01-01T01:48:45.000Z</time>
      </trkpt>
      <trkpt lat="45.2281" lon="5.42542">
        <ele>459</ele>
        <time>2000-01-01T01:48:55.000Z</time>
      </trkpt>
      <trkpt lat="45.22822" lon="5.42546">
        <ele>446.1</ele>
        <time>2000-01-01T01:49:05.000Z</time>
      </trkpt>
      <trkpt lat="45.22839" lon="5.42558">
        <ele>459</ele>
        <time>2000-01-01T01:49:15.000Z</time>
      </trkpt>
      <trkpt lat="45.22841" lon="5.4256">
        <ele>446.4</ele>
        <time>2000-01-01T01:49:25.000Z</time>
      </trkpt>
      <trkpt lat="45.22847" lon="5.4256">
        <ele>447.7</ele>
        <time>2000-01-01T01:49:35.000Z</time>
      </trkpt>
      <trkpt lat="45.22849" lon="5.42561">
        <ele>447.9</ele>
        <time>2000-01-01T01:49:45.000Z</time>
      </trkpt>
      <trkpt lat="45.2285" lon="5.42562">
        <ele>447.9</ele>
        <time>2000-01-01T01:49:55.000Z</time>
      </trkpt>
      <trkpt lat="45.22856" lon="5.42572">
        <ele>464</ele>
        <time>2000-01-01T01:50:05.000Z</time>
      </trkpt>
      <trkpt lat="45.22861" lon="5.42578">
        <ele>448.5</ele>
        <time>2000-01-01T01:50:15.000Z</time>
      </trkpt>
      <trkpt lat="45.22882" lon="5.42592">
        <ele>466</ele>
        <time>2000-01-01T01:50:25.000Z</time>
      </trkpt>
      <trkpt lat="45.22888" lon="5.42597">
        <ele>456.7</ele>
        <time>2000-01-01T01:50:35.000Z</time>
      </trkpt>
      <trkpt lat="45.2289" lon="5.42601">
        <ele>457.6</ele>
        <time>2000-01-01T01:50:45.000Z</time>
      </trkpt>
      <trkpt lat="45.2289" lon="5.42603">
        <ele>457.7</ele>
        <time>2000-01-01T01:50:55.000Z</time>
      </trkpt>
      <trkpt lat="45.2289" lon="5.42609">
        <ele>458.1</ele>
        <time>2000-01-01T01:51:05.000Z</time>
      </trkpt>
      <trkpt lat="45.22888" lon="5.42616">
        <ele>463</ele>
        <time>2000-01-01T01:51:15.000Z</time>
      </trkpt>
      <trkpt lat="45.22884" lon="5.42621">
        <ele>457.8</ele>
        <time>2000-01-01T01:51:25.000Z</time>
      </trkpt>
      <trkpt lat="45.22882" lon="5.42623">
        <ele>457.5</ele>
        <time>2000-01-01T01:51:35.000Z</time>
      </trkpt>
      <trkpt lat="45.2288" lon="5.42623">
        <ele>457</ele>
        <time>2000-01-01T01:51:45.000Z</time>
      </trkpt>
      <trkpt lat="45.22867" lon="5.42623">
        <ele>461</ele>
        <time>2000-01-01T01:51:55.000Z</time>
      </trkpt>
      <trkpt lat="45.22861" lon="5.42625">
        <ele>452.5</ele>
        <time>2000-01-01T01:52:05.000Z</time>
      </trkpt>
      <trkpt lat="45.22848" lon="5.42638">
        <ele>454</ele>
        <time>2000-01-01T01:52:15.000Z</time>
      </trkpt>
      <trkpt lat="45.22835" lon="5.42648">
        <ele>449.7</ele>
        <time>2000-01-01T01:52:25.000Z</time>
      </trkpt>
      <trkpt lat="45.22828" lon="5.42654">
        <ele>454</ele>
        <time>2000-01-01T01:52:35.000Z</time>
      </trkpt>
      <trkpt lat="45.22817" lon="5.42659">
        <ele>446.8</ele>
        <time>2000-01-01T01:52:45.000Z</time>
      </trkpt>
      <trkpt lat="45.22815" lon="5.42661">
        <ele>446.6</ele>
        <time>2000-01-01T01:52:55.000Z</time>
      </trkpt>
      <trkpt lat="45.22815" lon="5.42663">
        <ele>447.1</ele>
        <time>2000-01-01T01:53:05.000Z</time>
      </trkpt>
      <trkpt lat="45.22818" lon="5.42666">
        <ele>448.9</ele>
        <time>2000-01-01T01:53:15.000Z</time>
      </trkpt>
      <trkpt lat="45.22826" lon="5.42668">
        <ele>457</ele>
        <time>2000-01-01T01:53:25.000Z</time>
      </trkpt>
      <trkpt lat="45.22828" lon="5.42672">
        <ele>453.3</ele>
        <time>2000-01-01T01:53:35.000Z</time>
      </trkpt>
      <trkpt lat="45.22831" lon="5.42675">
        <ele>454.8</ele>
        <time>2000-01-01T01:53:45.000Z</time>
      </trkpt>
      <trkpt lat="45.22835" lon="5.42675">
        <ele>455.9</ele>
        <time>2000-01-01T01:53:55.000Z</time>
      </trkpt>
      <trkpt lat="45.22849" lon="5.42674">
        <ele>457</ele>
        <time>2000-01-01T01:54:05.000Z</time>
      </trkpt>
      <trkpt lat="45.22856" lon="5.42675">
        <ele>460.4</ele>
        <time>2000-01-01T01:54:15.000Z</time>
      </trkpt>
      <trkpt lat="45.22862" lon="5.42677">
        <ele>462</ele>
        <time>2000-01-01T01:54:25.000Z</time>
      </trkpt>
      <trkpt lat="45.22867" lon="5.42682">
        <ele>464</ele>
        <time>2000-01-01T01:54:35.000Z</time>
      </trkpt>
      <trkpt lat="45.22879" lon="5.427">
        <ele>468.4</ele>
        <time>2000-01-01T01:54:45.000Z</time>
      </trkpt>
      <trkpt lat="45.22883" lon="5.42709">
        <ele>477</ele>
        <time>2000-01-01T01:54:55.000Z</time>
      </trkpt>
      <trkpt lat="45.22886" lon="5.42714">
        <ele>471.5</ele>
        <time>2000-01-01T01:55:05.000Z</time>
      </trkpt>
      <trkpt lat="45.2289" lon="5.4272">
        <ele>472.7</ele>
        <time>2000-01-01T01:55:15.000Z</time>
      </trkpt>
      <trkpt lat="45.22897" lon="5.42728">
        <ele>474.1</ele>
        <time>2000-01-01T01:55:25.000Z</time>
      </trkpt>
      <trkpt lat="45.229" lon="5.42737">
        <ele>478</ele>
        <time>2000-01-01T01:55:35.000Z</time>
      </trkpt>
      <trkpt lat="45.22905" lon="5.42744">
        <ele>476.3</ele>
        <time>2000-01-01T01:55:45.000Z</time>
      </trkpt>
      <trkpt lat="45.22908" lon="5.42749">
        <ele>476.9</ele>
        <time>2000-01-01T01:55:55.000Z</time>
      </trkpt>
      <trkpt lat="45.22915" lon="5.42766">
        <ele>486</ele>
        <time>2000-01-01T01:56:05.000Z</time>
      </trkpt>
      <trkpt lat="45.2292" lon="5.4278">
        <ele>480.7</ele>
        <time>2000-01-01T01:56:15.000Z</time>
      </trkpt>
      <trkpt lat="45.22924" lon="5.42791">
        <ele>489</ele>
        <time>2000-01-01T01:56:25.000Z</time>
      </trkpt>
      <trkpt lat="45.22927" lon="5.42799">
        <ele>484.4</ele>
        <time>2000-01-01T01:56:35.000Z</time>
      </trkpt>
      <trkpt lat="45.22931" lon="5.42809">
        <ele>485.9</ele>
        <time>2000-01-01T01:56:45.000Z</time>
      </trkpt>
      <trkpt lat="45.22934" lon="5.42823">
        <ele>495</ele>
        <time>2000-01-01T01:56:55.000Z</time>
      </trkpt>
      <trkpt lat="45.22937" lon="5.42834">
        <ele>488.3</ele>
        <time>2000-01-01T01:57:05.000Z</time>
      </trkpt>
      <trkpt lat="45.22939" lon="5.42837">
        <ele>488.6</ele>
        <time>2000-01-01T01:57:15.000Z</time>
      </trkpt>
      <trkpt lat="45.2294" lon="5.42838">
        <ele>488.6</ele>
        <time>2000-01-01T01:57:25.000Z</time>
      </trkpt>
      <trkpt lat="45.22961" lon="5.42848">
        <ele>498</ele>
        <time>2000-01-01T01:57:35.000Z</time>
      </trkpt>
      <trkpt lat="45.22964" lon="5.42847">
        <ele>491.6</ele>
        <time>2000-01-01T01:57:45.000Z</time>
      </trkpt>
      <trkpt lat="45.22965" lon="5.42847">
        <ele>491.7</ele>
        <time>2000-01-01T01:57:55.000Z</time>
      </trkpt>
      <trkpt lat="45.22971" lon="5.4285">
        <ele>492.5</ele>
        <time>2000-01-01T01:58:05.000Z</time>
      </trkpt>
      <trkpt lat="45.2298" lon="5.42853">
        <ele>502</ele>
        <time>2000-01-01T01:58:15.000Z</time>
      </trkpt>
      <trkpt lat="45.2299" lon="5.42857">
        <ele>496.2</ele>
        <time>2000-01-01T01:58:25.000Z</time>
      </trkpt>
      <trkpt lat="45.22994" lon="5.42859">
        <ele>497</ele>
        <time>2000-01-01T01:58:35.000Z</time>
      </trkpt>
      <trkpt lat="45.22997" lon="5.42858">
        <ele>497.5</ele>
        <time>2000-01-01T01:58:45.000Z</time>
      </trkpt>
      <trkpt lat="45.23005" lon="5.42855">
        <ele>505</ele>
        <time>2000-01-01T01:58:55.000Z</time>
      </trkpt>
      <trkpt lat="45.23011" lon="5.42853">
        <ele>500.8</ele>
        <time>2000-01-01T01:59:05.000Z</time>
      </trkpt>
      <trkpt lat="45.23024" lon="5.42845">
        <ele>512</ele>
        <time>2000-01-01T01:59:15.000Z</time>
      </trkpt>
      <trkpt lat="45.23036" lon="5.42844">
        <ele>506.4</ele>
        <time>2000-01-01T01:59:25.000Z</time>
      </trkpt>
      <trkpt lat="45.23047" lon="5.42839">
        <ele>512</ele>
        <time>2000-01-01T01:59:35.000Z</time>
      </trkpt>
      <trkpt lat="45.23054" lon="5.42837">
        <ele>509.5</ele>
        <time>2000-01-01T01:59:45.000Z</time>
      </trkpt>
      <trkpt lat="45.23066" lon="5.42835">
        <ele>511.4</ele>
        <time>2000-01-01T01:59:55.000Z</time>
      </trkpt>
      <trkpt lat="45.23079" lon="5.42836">
        <ele>522</ele>
        <time>2000-01-01T02:00:05.000Z</time>
      </trkpt>
      <trkpt lat="45.23086" lon="5.42836">
        <ele>514.4</ele>
        <time>2000-01-01T02:00:15.000Z</time>
      </trkpt>
      <trkpt lat="45.23087" lon="5.42839">
        <ele>514.4</ele>
        <time>2000-01-01T02:00:25.000Z</time>
      </trkpt>
      <trkpt lat="45.23089" lon="5.4284">
        <ele>514.7</ele>
        <time>2000-01-01T02:00:35.000Z</time>
      </trkpt>
      <trkpt lat="45.2309" lon="5.42847">
        <ele>514.5</ele>
        <time>2000-01-01T02:00:45.000Z</time>
      </trkpt>
      <trkpt lat="45.23091" lon="5.4286">
        <ele>522</ele>
        <time>2000-01-01T02:00:55.000Z</time>
      </trkpt>
      <trkpt lat="45.23097" lon="5.42886">
        <ele>523</ele>
        <time>2000-01-01T02:01:05.000Z</time>
      </trkpt>
      <trkpt lat="45.23106" lon="5.42918">
        <ele>518</ele>
        <time>2000-01-01T02:01:15.000Z</time>
      </trkpt>
      <trkpt lat="45.23121" lon="5.42963">
        <ele>513</ele>
        <time>2000-01-01T02:01:25.000Z</time>
      </trkpt>
      <trkpt lat="45.23123" lon="5.42971">
        <ele>505.2</ele>
        <time>2000-01-01T02:01:35.000Z</time>
      </trkpt>
      <trkpt lat="45.23127" lon="5.42989">
        <ele>502.7</ele>
        <time>2000-01-01T02:01:45.000Z</time>
      </trkpt>
      <trkpt lat="45.23128" lon="5.42996">
        <ele>513</ele>
        <time>2000-01-01T02:01:55.000Z</time>
      </trkpt>
      <trkpt lat="45.23132" lon="5.43007">
        <ele>500.5</ele>
        <time>2000-01-01T02:02:05.000Z</time>
      </trkpt>
      <trkpt lat="45.23145" lon="5.43035">
        <ele>510</ele>
        <time>2000-01-01T02:02:15.000Z</time>
      </trkpt>
      <trkpt lat="45.23157" lon="5.43065">
        <ele>513</ele>
        <time>2000-01-01T02:02:25.000Z</time>
      </trkpt>
      <trkpt lat="45.23163" lon="5.4308">
        <ele>494.5</ele>
        <time>2000-01-01T02:02:35.000Z</time>
      </trkpt>
      <trkpt lat="45.23173" lon="5.43098">
        <ele>512</ele>
        <time>2000-01-01T02:02:45.000Z</time>
      </trkpt>
      <trkpt lat="45.23186" lon="5.43123">
        <ele>512</ele>
        <time>2000-01-01T02:02:55.000Z</time>
      </trkpt>
      <trkpt lat="45.23201" lon="5.43143">
        <ele>510</ele>
        <time>2000-01-01T02:03:05.000Z</time>
      </trkpt>
      <trkpt lat="45.23207" lon="5.43156">
        <ele>491.5</ele>
        <time>2000-01-01T02:03:15.000Z</time>
      </trkpt>
      <trkpt lat="45.23212" lon="5.43164">
        <ele>491.3</ele>
        <time>2000-01-01T02:03:25.000Z</time>
      </trkpt>
      <trkpt lat="45.23219" lon="5.43171">
        <ele>508</ele>
        <time>2000-01-01T02:03:35.000Z</time>
      </trkpt>
      <trkpt lat="45.23235" lon="5.43183">
        <ele>494.3</ele>
        <time>2000-01-01T02:03:45.000Z</time>
      </trkpt>
      <trkpt lat="45.23243" lon="5.43191">
        <ele>504</ele>
        <time>2000-01-01T02:03:55.000Z</time>
      </trkpt>
      <trkpt lat="45.23248" lon="5.43198">
        <ele>494.5</ele>
        <time>2000-01-01T02:04:05.000Z</time>
      </trkpt>
      <trkpt lat="45.2326" lon="5.43216">
        <ele>503</ele>
        <time>2000-01-01T02:04:15.000Z</time>
      </trkpt>
      <trkpt lat="45.23268" lon="5.43227">
        <ele>491.8</ele>
        <time>2000-01-01T02:04:25.000Z</time>
      </trkpt>
      <trkpt lat="45.23274" lon="5.43235">
        <ele>503</ele>
        <time>2000-01-01T02:04:35.000Z</time>
      </trkpt>
      <trkpt lat="45.23284" lon="5.43245">
        <ele>489.5</ele>
        <time>2000-01-01T02:04:45.000Z</time>
      </trkpt>
      <trkpt lat="45.23291" lon="5.43251">
        <ele>501</ele>
        <time>2000-01-01T02:04:55.000Z</time>
      </trkpt>
      <trkpt lat="45.23303" lon="5.43258">
        <ele>487.2</ele>
        <time>2000-01-01T02:05:05.000Z</time>
      </trkpt>
      <trkpt lat="45.23317" lon="5.43268">
        <ele>499</ele>
        <time>2000-01-01T02:05:15.000Z</time>
      </trkpt>
      <trkpt lat="45.23326" lon="5.43272">
        <ele>484.1</ele>
        <time>2000-01-01T02:05:25.000Z</time>
      </trkpt>
      <trkpt lat="45.2333" lon="5.43273">
        <ele>483.9</ele>
        <time>2000-01-01T02:05:35.000Z</time>
      </trkpt>
      <trkpt lat="45.23337" lon="5.43273">
        <ele>489</ele>
        <time>2000-01-01T02:05:45.000Z</time>
      </trkpt>
      <trkpt lat="45.23357" lon="5.43271">
        <ele>488</ele>
        <time>2000-01-01T02:05:55.000Z</time>
      </trkpt>
      <trkpt lat="45.23369" lon="5.43272">
        <ele>483</ele>
        <time>2000-01-01T02:06:05.000Z</time>
      </trkpt>
      <trkpt lat="45.23385" lon="5.43271">
        <ele>488</ele>
        <time>2000-01-01T02:06:15.000Z</time>
      </trkpt>
      <trkpt lat="45.2339" lon="5.43271">
        <ele>483</ele>
        <time>2000-01-01T02:06:25.000Z</time>
      </trkpt>
      <trkpt lat="45.23398" lon="5.43274">
        <ele>482.9</ele>
        <time>2000-01-01T02:06:35.000Z</time>
      </trkpt>
      <trkpt lat="45.23418" lon="5.43285">
        <ele>493</ele>
        <time>2000-01-01T02:06:45.000Z</time>
      </trkpt>
      <trkpt lat="45.23426" lon="5.43287">
        <ele>482.2</ele>
        <time>2000-01-01T02:06:55.000Z</time>
      </trkpt>
      <trkpt lat="45.23432" lon="5.43291">
        <ele>482.2</ele>
        <time>2000-01-01T02:07:05.000Z</time>
      </trkpt>
      <trkpt lat="45.2344" lon="5.43299">
        <ele>493</ele>
        <time>2000-01-01T02:07:15.000Z</time>
      </trkpt>
      <trkpt lat="45.23443" lon="5.43305">
        <ele>481.9</ele>
        <time>2000-01-01T02:07:25.000Z</time>
      </trkpt>
      <trkpt lat="45.2345" lon="5.4332">
        <ele>480.2</ele>
        <time>2000-01-01T02:07:35.000Z</time>
      </trkpt>
      <trkpt lat="45.23456" lon="5.43328">
        <ele>490</ele>
        <time>2000-01-01T02:07:45.000Z</time>
      </trkpt>
      <trkpt lat="45.23463" lon="5.43334">
        <ele>480.3</ele>
        <time>2000-01-01T02:07:55.000Z</time>
      </trkpt>
      <trkpt lat="45.2348" lon="5.43345">
        <ele>488</ele>
        <time>2000-01-01T02:08:05.000Z</time>
      </trkpt>
      <trkpt lat="45.23507" lon="5.43356">
        <ele>489</ele>
        <time>2000-01-01T02:08:15.000Z</time>
      </trkpt>
      <trkpt lat="45.23547" lon="5.43371">
        <ele>491</ele>
        <time>2000-01-01T02:08:25.000Z</time>
      </trkpt>
      <trkpt lat="45.23565" lon="5.43376">
        <ele>491.3</ele>
        <time>2000-01-01T02:08:35.000Z</time>
      </trkpt>
      <trkpt lat="45.23571" lon="5.4338">
        <ele>501</ele>
        <time>2000-01-01T02:08:45.000Z</time>
      </trkpt>
      <trkpt lat="45.23577" lon="5.43386">
        <ele>492.3</ele>
        <time>2000-01-01T02:08:55.000Z</time>
      </trkpt>
      <trkpt lat="45.23582" lon="5.43389">
        <ele>492.8</ele>
        <time>2000-01-01T02:09:05.000Z</time>
      </trkpt>
      <trkpt lat="45.23625" lon="5.43399">
        <ele>504</ele>
        <time>2000-01-01T02:09:15.000Z</time>
      </trkpt>
      <trkpt lat="45.23624" lon="5.43395">
        <ele>497.9</ele>
        <time>2000-01-01T02:09:25.000Z</time>
      </trkpt>
      <trkpt lat="45.23622" lon="5.4339">
        <ele>498.4</ele>
        <time>2000-01-01T02:09:35.000Z</time>
      </trkpt>
      <trkpt lat="45.23622" lon="5.43386">
        <ele>498.9</ele>
        <time>2000-01-01T02:09:45.000Z</time>
      </trkpt>
      <trkpt lat="45.23624" lon="5.43382">
        <ele>499.7</ele>
        <time>2000-01-01T02:09:55.000Z</time>
      </trkpt>
      <trkpt lat="45.23627" lon="5.43377">
        <ele>500.8</ele>
        <time>2000-01-01T02:10:05.000Z</time>
      </trkpt>
      <trkpt lat="45.23633" lon="5.43372">
        <ele>514</ele>
        <time>2000-01-01T02:10:15.000Z</time>
      </trkpt>
      <trkpt lat="45.2364" lon="5.43361">
        <ele>505.3</ele>
        <time>2000-01-01T02:10:25.000Z</time>
      </trkpt>
      <trkpt lat="45.23652" lon="5.43335">
        <ele>521</ele>
        <time>2000-01-01T02:10:35.000Z</time>
      </trkpt>
      <trkpt lat="45.23657" lon="5.4333">
        <ele>517.2</ele>
        <time>2000-01-01T02:10:45.000Z</time>
      </trkpt>
      <trkpt lat="45.23673" lon="5.4332">
        <ele>529</ele>
        <time>2000-01-01T02:10:55.000Z</time>
      </trkpt>
      <trkpt lat="45.23686" lon="5.43317">
        <ele>527.8</ele>
        <time>2000-01-01T02:11:05.000Z</time>
      </trkpt>
      <trkpt lat="45.23693" lon="5.43313">
        <ele>535</ele>
        <time>2000-01-01T02:11:15.000Z</time>
      </trkpt>
      <trkpt lat="45.23705" lon="5.43302">
        <ele>533.7</ele>
        <time>2000-01-01T02:11:25.000Z</time>
      </trkpt>
      <trkpt lat="45.23708" lon="5.43297">
        <ele>534.7</ele>
        <time>2000-01-01T02:11:35.000Z</time>
      </trkpt>
      <trkpt lat="45.23708" lon="5.43295">
        <ele>537</ele>
        <time>2000-01-01T02:11:45.000Z</time>
      </trkpt>
      <trkpt lat="45.23708" lon="5.4329">
        <ele>535.7</ele>
        <time>2000-01-01T02:11:55.000Z</time>
      </trkpt>
      <trkpt lat="45.23709" lon="5.43283">
        <ele>536.8</ele>
        <time>2000-01-01T02:12:05.000Z</time>
      </trkpt>
      <trkpt lat="45.23711" lon="5.4328">
        <ele>537.3</ele>
        <time>2000-01-01T02:12:15.000Z</time>
      </trkpt>
      <trkpt lat="45.23714" lon="5.43274">
        <ele>538</ele>
        <time>2000-01-01T02:12:25.000Z</time>
      </trkpt>
      <trkpt lat="45.23719" lon="5.43267">
        <ele>543</ele>
        <time>2000-01-01T02:12:35.000Z</time>
      </trkpt>
      <trkpt lat="45.23723" lon="5.43259">
        <ele>539.4</ele>
        <time>2000-01-01T02:12:45.000Z</time>
      </trkpt>
      <trkpt lat="45.23726" lon="5.43256">
        <ele>539.6</ele>
        <time>2000-01-01T02:12:55.000Z</time>
      </trkpt>
      <trkpt lat="45.23728" lon="5.43253">
        <ele>539.8</ele>
        <time>2000-01-01T02:13:05.000Z</time>
      </trkpt>
      <trkpt lat="45.23731" lon="5.43246">
        <ele>543</ele>
        <time>2000-01-01T02:13:15.000Z</time>
      </trkpt>
      <trkpt lat="45.23734" lon="5.43234">
        <ele>540.1</ele>
        <time>2000-01-01T02:13:25.000Z</time>
      </trkpt>
      <trkpt lat="45.23736" lon="5.43227">
        <ele>540</ele>
        <time>2000-01-01T02:13:35.000Z</time>
      </trkpt>
      <trkpt lat="45.23736" lon="5.43225">
        <ele>540</ele>
        <time>2000-01-01T02:13:45.000Z</time>
      </trkpt>
      <trkpt lat="45.23724" lon="5.43169">
        <ele>545</ele>
        <time>2000-01-01T02:13:55.000Z</time>
      </trkpt>
      <trkpt lat="45.23714" lon="5.43141">
        <ele>548</ele>
        <time>2000-01-01T02:14:05.000Z</time>
      </trkpt>
      <trkpt lat="45.23711" lon="5.43136">
        <ele>540.9</ele>
        <time>2000-01-01T02:14:15.000Z</time>
      </trkpt>
      <trkpt lat="45.2369" lon="5.43113">
        <ele>552</ele>
        <time>2000-01-01T02:14:25.000Z</time>
      </trkpt>
      <trkpt lat="45.23681" lon="5.43101">
        <ele>544.3</ele>
        <time>2000-01-01T02:14:35.000Z</time>
      </trkpt>
      <trkpt lat="45.23664" lon="5.43072">
        <ele>552</ele>
        <time>2000-01-01T02:14:45.000Z</time>
      </trkpt>
      <trkpt lat="45.23651" lon="5.43047">
        <ele>548</ele>
        <time>2000-01-01T02:14:55.000Z</time>
      </trkpt>
      <trkpt lat="45.23634" lon="5.43022">
        <ele>548</ele>
        <time>2000-01-01T02:15:05.000Z</time>
      </trkpt>
      <trkpt lat="45.23631" lon="5.43018">
        <ele>547.3</ele>
        <time>2000-01-01T02:15:15.000Z</time>
      </trkpt>
      <trkpt lat="45.23625" lon="5.43015">
        <ele>547.5</ele>
        <time>2000-01-01T02:15:25.000Z</time>
      </trkpt>
      <trkpt lat="45.23623" lon="5.43015">
        <ele>547.6</ele>
        <time>2000-01-01T02:15:35.000Z</time>
      </trkpt>
      <trkpt lat="45.23619" lon="5.43016">
        <ele>547.7</ele>
        <time>2000-01-01T02:15:45.000Z</time>
      </trkpt>
      <trkpt lat="45.23616" lon="5.43019">
        <ele>551</ele>
        <time>2000-01-01T02:15:55.000Z</time>
      </trkpt>
      <trkpt lat="45.23608" lon="5.4303">
        <ele>548.1</ele>
        <time>2000-01-01T02:16:05.000Z</time>
      </trkpt>
      <trkpt lat="45.23604" lon="5.43033">
        <ele>548.2</ele>
        <time>2000-01-01T02:16:15.000Z</time>
      </trkpt>
      <trkpt lat="45.236" lon="5.43035">
        <ele>551</ele>
        <time>2000-01-01T02:16:25.000Z</time>
      </trkpt>
      <trkpt lat="45.23594" lon="5.43036">
        <ele>548.4</ele>
        <time>2000-01-01T02:16:35.000Z</time>
      </trkpt>
      <trkpt lat="45.23588" lon="5.43033">
        <ele>548.7</ele>
        <time>2000-01-01T02:16:45.000Z</time>
      </trkpt>
      <trkpt lat="45.23575" lon="5.43023">
        <ele>555</ele>
        <time>2000-01-01T02:16:55.000Z</time>
      </trkpt>
      <trkpt lat="45.23554" lon="5.43005">
        <ele>558</ele>
        <time>2000-01-01T02:17:05.000Z</time>
      </trkpt>
      <trkpt lat="45.23531" lon="5.42986">
        <ele>558</ele>
        <time>2000-01-01T02:17:15.000Z</time>
      </trkpt>
      <trkpt lat="45.23512" lon="5.42974">
        <ele>558</ele>
        <time>2000-01-01T02:17:25.000Z</time>
      </trkpt>
      <trkpt lat="45.23499" lon="5.42964">
        <ele>555.7</ele>
        <time>2000-01-01T02:17:35.000Z</time>
      </trkpt>
      <trkpt lat="45.23491" lon="5.42956">
        <ele>558</ele>
        <time>2000-01-01T02:17:45.000Z</time>
      </trkpt>
      <trkpt lat="45.23468" lon="5.42931">
        <ele>556</ele>
        <time>2000-01-01T02:17:55.000Z</time>
      </trkpt>
      <trkpt lat="45.23461" lon="5.42924">
        <ele>553.6</ele>
        <time>2000-01-01T02:18:05.000Z</time>
      </trkpt>
      <trkpt lat="45.23454" lon="5.42919">
        <ele>553.3</ele>
        <time>2000-01-01T02:18:15.000Z</time>
      </trkpt>
      <trkpt lat="45.23436" lon="5.42907">
        <ele>552</ele>
        <time>2000-01-01T02:18:25.000Z</time>
      </trkpt>
      <trkpt lat="45.23431" lon="5.42903">
        <ele>551.3</ele>
        <time>2000-01-01T02:18:35.000Z</time>
      </trkpt>
      <trkpt lat="45.23427" lon="5.42897">
        <ele>550.9</ele>
        <time>2000-01-01T02:18:45.000Z</time>
      </trkpt>
      <trkpt lat="45.23427" lon="5.42894">
        <ele>550.8</ele>
        <time>2000-01-01T02:18:55.000Z</time>
      </trkpt>
      <trkpt lat="45.23427" lon="5.42887">
        <ele>550.5</ele>
        <time>2000-01-01T02:19:05.000Z</time>
      </trkpt>
      <trkpt lat="45.23429" lon="5.4288">
        <ele>552</ele>
        <time>2000-01-01T02:19:15.000Z</time>
      </trkpt>
      <trkpt lat="45.23431" lon="5.42877">
        <ele>549.7</ele>
        <time>2000-01-01T02:19:25.000Z</time>
      </trkpt>
      <trkpt lat="45.23474" lon="5.42816">
        <ele>549</ele>
        <time>2000-01-01T02:19:35.000Z</time>
      </trkpt>
      <trkpt lat="45.23475" lon="5.42813">
        <ele>543.6</ele>
        <time>2000-01-01T02:19:45.000Z</time>
      </trkpt>
      <trkpt lat="45.23476" lon="5.4281">
        <ele>543.2</ele>
        <time>2000-01-01T02:19:55.000Z</time>
      </trkpt>
      <trkpt lat="45.23476" lon="5.42802">
        <ele>542.3</ele>
        <time>2000-01-01T02:20:05.000Z</time>
      </trkpt>
      <trkpt lat="45.23475" lon="5.42798">
        <ele>542</ele>
        <time>2000-01-01T02:20:15.000Z</time>
      </trkpt>
      <trkpt lat="45.23474" lon="5.42794">
        <ele>541.6</ele>
        <time>2000-01-01T02:20:25.000Z</time>
      </trkpt>
      <trkpt lat="45.23471" lon="5.42788">
        <ele>547</ele>
        <time>2000-01-01T02:20:35.000Z</time>
      </trkpt>
      <trkpt lat="45.23457" lon="5.42764">
        <ele>542</ele>
        <time>2000-01-01T02:20:45.000Z</time>
      </trkpt>
      <trkpt lat="45.23432" lon="5.42727">
        <ele>534</ele>
        <time>2000-01-01T02:20:55.000Z</time>
      </trkpt>
      <trkpt lat="45.23413" lon="5.427">
        <ele>532</ele>
        <time>2000-01-01T02:21:05.000Z</time>
      </trkpt>
      <trkpt lat="45.23381" lon="5.4266">
        <ele>528</ele>
        <time>2000-01-01T02:21:15.000Z</time>
      </trkpt>
      <trkpt lat="45.23357" lon="5.42632">
        <ele>528</ele>
        <time>2000-01-01T02:21:25.000Z</time>
      </trkpt>
      <trkpt lat="45.23354" lon="5.42626">
        <ele>526.1</ele>
        <time>2000-01-01T02:21:35.000Z</time>
      </trkpt>
      <trkpt lat="45.23354" lon="5.42623">
        <ele>525.9</ele>
        <time>2000-01-01T02:21:45.000Z</time>
      </trkpt>
      <trkpt lat="45.23355" lon="5.42617">
        <ele>525.4</ele>
        <time>2000-01-01T02:21:55.000Z</time>
      </trkpt>
      <trkpt lat="45.23359" lon="5.42611">
        <ele>525</ele>
        <time>2000-01-01T02:22:05.000Z</time>
      </trkpt>
      <trkpt lat="45.23374" lon="5.42592">
        <ele>525</ele>
        <time>2000-01-01T02:22:15.000Z</time>
      </trkpt>
      <trkpt lat="45.23389" lon="5.42573">
        <ele>522</ele>
        <time>2000-01-01T02:22:25.000Z</time>
      </trkpt>
      <trkpt lat="45.23404" lon="5.42551">
        <ele>522</ele>
        <time>2000-01-01T02:22:35.000Z</time>
      </trkpt>
      <trkpt lat="45.23418" lon="5.42533">
        <ele>523</ele>
        <time>2000-01-01T02:22:45.000Z</time>
      </trkpt>
      <trkpt lat="45.23423" lon="5.42526">
        <ele>521.9</ele>
        <time>2000-01-01T02:22:55.000Z</time>
      </trkpt>
      <trkpt lat="45.23431" lon="5.42511">
        <ele>523</ele>
        <time>2000-01-01T02:23:05.000Z</time>
      </trkpt>
      <trkpt lat="45.23445" lon="5.42493">
        <ele>519.2</ele>
        <time>2000-01-01T02:23:15.000Z</time>
      </trkpt>
      <trkpt lat="45.23446" lon="5.4249">
        <ele>522</ele>
        <time>2000-01-01T02:23:25.000Z</time>
      </trkpt>
      <trkpt lat="45.23447" lon="5.42486">
        <ele>518.4</ele>
        <time>2000-01-01T02:23:35.000Z</time>
      </trkpt>
      <trkpt lat="45.23446" lon="5.42479">
        <ele>517.7</ele>
        <time>2000-01-01T02:23:45.000Z</time>
      </trkpt>
      <trkpt lat="45.23442" lon="5.42476">
        <ele>517.6</ele>
        <time>2000-01-01T02:23:55.000Z</time>
      </trkpt>
      <trkpt lat="45.23403" lon="5.42462">
        <ele>522</ele>
        <time>2000-01-01T02:24:05.000Z</time>
      </trkpt>
      <trkpt lat="45.23382" lon="5.42457">
        <ele>521</ele>
        <time>2000-01-01T02:24:15.000Z</time>
      </trkpt>
      <trkpt lat="45.23357" lon="5.42451">
        <ele>516</ele>
        <time>2000-01-01T02:24:25.000Z</time>
      </trkpt>
      <trkpt lat="45.23346" lon="5.42448">
        <ele>517.1</ele>
        <time>2000-01-01T02:24:35.000Z</time>
      </trkpt>
      <trkpt lat="45.23339" lon="5.42443">
        <ele>517</ele>
        <time>2000-01-01T02:24:45.000Z</time>
      </trkpt>
      <trkpt lat="45.23332" lon="5.42437">
        <ele>518</ele>
        <time>2000-01-01T02:24:55.000Z</time>
      </trkpt>
      <trkpt lat="45.23313" lon="5.42416">
        <ele>520</ele>
        <time>2000-01-01T02:25:05.000Z</time>
      </trkpt>
      <trkpt lat="45.23306" lon="5.42409">
        <ele>521</ele>
        <time>2000-01-01T02:25:15.000Z</time>
      </trkpt>
      <trkpt lat="45.23296" lon="5.42402">
        <ele>527</ele>
        <time>2000-01-01T02:25:25.000Z</time>
      </trkpt>
      <trkpt lat="45.23275" lon="5.42393">
        <ele>527</ele>
        <time>2000-01-01T02:25:35.000Z</time>
      </trkpt>
      <trkpt lat="45.23264" lon="5.42385">
        <ele>523.3</ele>
        <time>2000-01-01T02:25:45.000Z</time>
      </trkpt>
      <trkpt lat="45.23255" lon="5.42378">
        <ele>527</ele>
        <time>2000-01-01T02:25:55.000Z</time>
      </trkpt>
      <trkpt lat="45.23247" lon="5.42369">
        <ele>522.7</ele>
        <time>2000-01-01T02:26:05.000Z</time>
      </trkpt>
      <trkpt lat="45.2323" lon="5.42349">
        <ele>527</ele>
        <time>2000-01-01T02:26:15.000Z</time>
      </trkpt>
      <trkpt lat="45.23213" lon="5.42325">
        <ele>527</ele>
        <time>2000-01-01T02:26:25.000Z</time>
      </trkpt>
      <trkpt lat="45.23194" lon="5.423">
        <ele>523</ele>
        <time>2000-01-01T02:26:35.000Z</time>
      </trkpt>
      <trkpt lat="45.23174" lon="5.42275">
        <ele>520</ele>
        <time>2000-01-01T02:26:45.000Z</time>
      </trkpt>
      <trkpt lat="45.23157" lon="5.42253">
        <ele>518</ele>
        <time>2000-01-01T02:26:55.000Z</time>
      </trkpt>
      <trkpt lat="45.23153" lon="5.42249">
        <ele>516.5</ele>
        <time>2000-01-01T02:27:05.000Z</time>
      </trkpt>
      <trkpt lat="45.23151" lon="5.42248">
        <ele>516.5</ele>
        <time>2000-01-01T02:27:15.000Z</time>
      </trkpt>
      <trkpt lat="45.23149" lon="5.4225">
        <ele>516.6</ele>
        <time>2000-01-01T02:27:25.000Z</time>
      </trkpt>
      <trkpt lat="45.23142" lon="5.42263">
        <ele>518</ele>
        <time>2000-01-01T02:27:35.000Z</time>
      </trkpt>
      <trkpt lat="45.23125" lon="5.42282">
        <ele>522</ele>
        <time>2000-01-01T02:27:45.000Z</time>
      </trkpt>
      <trkpt lat="45.23107" lon="5.42307">
        <ele>525</ele>
        <time>2000-01-01T02:27:55.000Z</time>
      </trkpt>
      <trkpt lat="45.23085" lon="5.42335">
        <ele>526</ele>
        <time>2000-01-01T02:28:05.000Z</time>
      </trkpt>
      <trkpt lat="45.2308" lon="5.42341">
        <ele>525.1</ele>
        <time>2000-01-01T02:28:15.000Z</time>
      </trkpt>
      <trkpt lat="45.23075" lon="5.42343">
        <ele>524.7</ele>
        <time>2000-01-01T02:28:25.000Z</time>
      </trkpt>
      <trkpt lat="45.23073" lon="5.42342">
        <ele>524.6</ele>
        <time>2000-01-01T02:28:35.000Z</time>
      </trkpt>
      <trkpt lat="45.23062" lon="5.42337">
        <ele>526</ele>
        <time>2000-01-01T02:28:45.000Z</time>
      </trkpt>
      <trkpt lat="45.23045" lon="5.42327">
        <ele>522.6</ele>
        <time>2000-01-01T02:28:55.000Z</time>
      </trkpt>
      <trkpt lat="45.23034" lon="5.42317">
        <ele>527</ele>
        <time>2000-01-01T02:29:05.000Z</time>
      </trkpt>
      <trkpt lat="45.23012" lon="5.42294">
        <ele>529</ele>
        <time>2000-01-01T02:29:15.000Z</time>
      </trkpt>
      <trkpt lat="45.22976" lon="5.42268">
        <ele>531</ele>
        <time>2000-01-01T02:29:25.000Z</time>
      </trkpt>
      <trkpt lat="45.22958" lon="5.4225">
        <ele>530</ele>
        <time>2000-01-01T02:29:35.000Z</time>
      </trkpt>
      <trkpt lat="45.22956" lon="5.42249">
        <ele>523.3</ele>
        <time>2000-01-01T02:29:45.000Z</time>
      </trkpt>
      <trkpt lat="45.22949" lon="5.42247">
        <ele>522.8</ele>
        <time>2000-01-01T02:29:55.000Z</time>
      </trkpt>
      <trkpt lat="45.22945" lon="5.42245">
        <ele>522.8</ele>
        <time>2000-01-01T02:30:05.000Z</time>
      </trkpt>
      <trkpt lat="45.22922" lon="5.42228">
        <ele>529</ele>
        <time>2000-01-01T02:30:15.000Z</time>
      </trkpt>
      <trkpt lat="45.22915" lon="5.42221">
        <ele>521.8</ele>
        <time>2000-01-01T02:30:25.000Z</time>
      </trkpt>
      <trkpt lat="45.22907" lon="5.42211">
        <ele>521.3</ele>
        <time>2000-01-01T02:30:35.000Z</time>
      </trkpt>
      <trkpt lat="45.22899" lon="5.42198">
        <ele>525</ele>
        <time>2000-01-01T02:30:45.000Z</time>
      </trkpt>
      <trkpt lat="45.22897" lon="5.42193">
        <ele>521.5</ele>
        <time>2000-01-01T02:30:55.000Z</time>
      </trkpt>
      <trkpt lat="45.22897" lon="5.42189">
        <ele>521.5</ele>
        <time>2000-01-01T02:31:05.000Z</time>
      </trkpt>
      <trkpt lat="45.22893" lon="5.42186">
        <ele>520.9</ele>
        <time>2000-01-01T02:31:15.000Z</time>
      </trkpt>
      <trkpt lat="45.2289" lon="5.42178">
        <ele>520.7</ele>
        <time>2000-01-01T02:31:25.000Z</time>
      </trkpt>
      <trkpt lat="45.2289" lon="5.42175">
        <ele>524</ele>
        <time>2000-01-01T02:31:35.000Z</time>
      </trkpt>
      <trkpt lat="45.22893" lon="5.42157">
        <ele>520.6</ele>
        <time>2000-01-01T02:31:45.000Z</time>
      </trkpt>
      <trkpt lat="45.22894" lon="5.42141">
        <ele>522</ele>
        <time>2000-01-01T02:31:55.000Z</time>
      </trkpt>
      <trkpt lat="45.22895" lon="5.42133">
        <ele>518.8</ele>
        <time>2000-01-01T02:32:05.000Z</time>
      </trkpt>
      <trkpt lat="45.22896" lon="5.42126">
        <ele>518.1</ele>
        <time>2000-01-01T02:32:15.000Z</time>
      </trkpt>
      <trkpt lat="45.22899" lon="5.42121">
        <ele>517.8</ele>
        <time>2000-01-01T02:32:25.000Z</time>
      </trkpt>
      <trkpt lat="45.22901" lon="5.42117">
        <ele>517.5</ele>
        <time>2000-01-01T02:32:35.000Z</time>
      </trkpt>
      <trkpt lat="45.22904" lon="5.42114">
        <ele>518</ele>
        <time>2000-01-01T02:32:45.000Z</time>
      </trkpt>
      <trkpt lat="45.22912" lon="5.421">
        <ele>516.5</ele>
        <time>2000-01-01T02:32:55.000Z</time>
      </trkpt>
      <trkpt lat="45.22919" lon="5.42089">
        <ele>516</ele>
        <time>2000-01-01T02:33:05.000Z</time>
      </trkpt>
      <trkpt lat="45.22937" lon="5.42069">
        <ele>513</ele>
        <time>2000-01-01T02:33:15.000Z</time>
      </trkpt>
      <trkpt lat="45.2297" lon="5.4203">
        <ele>509</ele>
        <time>2000-01-01T02:33:25.000Z</time>
      </trkpt>
      <trkpt lat="45.22984" lon="5.42009">
        <ele>505</ele>
        <time>2000-01-01T02:33:35.000Z</time>
      </trkpt>
      <trkpt lat="45.22985" lon="5.42006">
        <ele>509.2</ele>
        <time>2000-01-01T02:33:45.000Z</time>
      </trkpt>
      <trkpt lat="45.22985" lon="5.42004">
        <ele>509.1</ele>
        <time>2000-01-01T02:33:55.000Z</time>
      </trkpt>
      <trkpt lat="45.22983" lon="5.41998">
        <ele>508.9</ele>
        <time>2000-01-01T02:34:05.000Z</time>
      </trkpt>
      <trkpt lat="45.22978" lon="5.4199">
        <ele>508.6</ele>
        <time>2000-01-01T02:34:15.000Z</time>
      </trkpt>
      <trkpt lat="45.2297" lon="5.41979">
        <ele>505</ele>
        <time>2000-01-01T02:34:25.000Z</time>
      </trkpt>
      <trkpt lat="45.22951" lon="5.41956">
        <ele>505</ele>
        <time>2000-01-01T02:34:35.000Z</time>
      </trkpt>
      <trkpt lat="45.22945" lon="5.41947">
        <ele>505.1</ele>
        <time>2000-01-01T02:34:45.000Z</time>
      </trkpt>
      <trkpt lat="45.22938" lon="5.41935">
        <ele>504</ele>
        <time>2000-01-01T02:34:55.000Z</time>
      </trkpt>
      <trkpt lat="45.2293" lon="5.41917">
        <ele>501.5</ele>
        <time>2000-01-01T02:35:05.000Z</time>
      </trkpt>
      <trkpt lat="45.22919" lon="5.41889">
        <ele>503</ele>
        <time>2000-01-01T02:35:15.000Z</time>
      </trkpt>
      <trkpt lat="45.22902" lon="5.41851">
        <ele>501</ele>
        <time>2000-01-01T02:35:25.000Z</time>
      </trkpt>
      <trkpt lat="45.229" lon="5.41843">
        <ele>495.3</ele>
        <time>2000-01-01T02:35:35.000Z</time>
      </trkpt>
      <trkpt lat="45.229" lon="5.41838">
        <ele>495.1</ele>
        <time>2000-01-01T02:35:45.000Z</time>
      </trkpt>
      <trkpt lat="45.229" lon="5.41834">
        <ele>495</ele>
        <time>2000-01-01T02:35:55.000Z</time>
      </trkpt>
      <trkpt lat="45.22903" lon="5.41827">
        <ele>495.1</ele>
        <time>2000-01-01T02:36:05.000Z</time>
      </trkpt>
      <trkpt lat="45.22907" lon="5.41821">
        <ele>500</ele>
        <time>2000-01-01T02:36:15.000Z</time>
      </trkpt>
      <trkpt lat="45.22912" lon="5.41816">
        <ele>495.1</ele>
        <time>2000-01-01T02:36:25.000Z</time>
      </trkpt>
      <trkpt lat="45.2292" lon="5.41811">
        <ele>494.8</ele>
        <time>2000-01-01T02:36:35.000Z</time>
      </trkpt>
      <trkpt lat="45.22928" lon="5.41807">
        <ele>500</ele>
        <time>2000-01-01T02:36:45.000Z</time>
      </trkpt>
      <trkpt lat="45.22949" lon="5.41801">
        <ele>499</ele>
        <time>2000-01-01T02:36:55.000Z</time>
      </trkpt>
      <trkpt lat="45.22951" lon="5.41796">
        <ele>492.7</ele>
        <time>2000-01-01T02:37:05.000Z</time>
      </trkpt>
      <trkpt lat="45.22958" lon="5.41786">
        <ele>492.2</ele>
        <time>2000-01-01T02:37:15.000Z</time>
      </trkpt>
      <trkpt lat="45.22962" lon="5.41777">
        <ele>499</ele>
        <time>2000-01-01T02:37:25.000Z</time>
      </trkpt>
      <trkpt lat="45.2297" lon="5.41763">
        <ele>491.2</ele>
        <time>2000-01-01T02:37:35.000Z</time>
      </trkpt>
      <trkpt lat="45.22975" lon="5.41752">
        <ele>498</ele>
        <time>2000-01-01T02:37:45.000Z</time>
      </trkpt>
      <trkpt lat="45.22982" lon="5.4173">
        <ele>490.5</ele>
        <time>2000-01-01T02:37:55.000Z</time>
      </trkpt>
      <trkpt lat="45.22993" lon="5.41694">
        <ele>494</ele>
        <time>2000-01-01T02:38:05.000Z</time>
      </trkpt>
      <trkpt lat="45.22996" lon="5.41684">
        <ele>487.7</ele>
        <time>2000-01-01T02:38:15.000Z</time>
      </trkpt>
      <trkpt lat="45.22997" lon="5.41677">
        <ele>487.5</ele>
        <time>2000-01-01T02:38:25.000Z</time>
      </trkpt>
      <trkpt lat="45.22997" lon="5.41666">
        <ele>493</ele>
        <time>2000-01-01T02:38:35.000Z</time>
      </trkpt>
      <trkpt lat="45.22992" lon="5.41616">
        <ele>491</ele>
        <time>2000-01-01T02:38:45.000Z</time>
      </trkpt>
      <trkpt lat="45.22993" lon="5.41593">
        <ele>484</ele>
        <time>2000-01-01T02:38:55.000Z</time>
      </trkpt>
      <trkpt lat="45.22992" lon="5.41586">
        <ele>489</ele>
        <time>2000-01-01T02:39:05.000Z</time>
      </trkpt>
      <trkpt lat="45.22987" lon="5.41564">
        <ele>482.3</ele>
        <time>2000-01-01T02:39:15.000Z</time>
      </trkpt>
      <trkpt lat="45.22983" lon="5.41555">
        <ele>488</ele>
        <time>2000-01-01T02:39:25.000Z</time>
      </trkpt>
      <trkpt lat="45.2297" lon="5.41531">
        <ele>484</ele>
        <time>2000-01-01T02:39:35.000Z</time>
      </trkpt>
      <trkpt lat="45.22969" lon="5.41527">
        <ele>484</ele>
        <time>2000-01-01T02:39:45.000Z</time>
      </trkpt>
      <trkpt lat="45.22968" lon="5.41521">
        <ele>484.4</ele>
        <time>2000-01-01T02:39:55.000Z</time>
      </trkpt>
      <trkpt lat="45.22968" lon="5.41517">
        <ele>484.4</ele>
        <time>2000-01-01T02:40:05.000Z</time>
      </trkpt>
      <trkpt lat="45.2297" lon="5.41513">
        <ele>483.8</ele>
        <time>2000-01-01T02:40:15.000Z</time>
      </trkpt>
      <trkpt lat="45.22982" lon="5.41496">
        <ele>480</ele>
        <time>2000-01-01T02:40:25.000Z</time>
      </trkpt>
      <trkpt lat="45.22986" lon="5.41487">
        <ele>479.3</ele>
        <time>2000-01-01T02:40:35.000Z</time>
      </trkpt>
      <trkpt lat="45.22989" lon="5.41477">
        <ele>478.5</ele>
        <time>2000-01-01T02:40:45.000Z</time>
      </trkpt>
      <trkpt lat="45.22991" lon="5.41467">
        <ele>479</ele>
        <time>2000-01-01T02:40:55.000Z</time>
      </trkpt>
      <trkpt lat="45.22992" lon="5.41457">
        <ele>477.6</ele>
        <time>2000-01-01T02:41:05.000Z</time>
      </trkpt>
      <trkpt lat="45.22993" lon="5.41443">
        <ele>477.3</ele>
        <time>2000-01-01T02:41:15.000Z</time>
      </trkpt>
      <trkpt lat="45.22991" lon="5.41411">
        <ele>479</ele>
        <time>2000-01-01T02:41:25.000Z</time>
      </trkpt>
      <trkpt lat="45.22992" lon="5.41382">
        <ele>478</ele>
        <time>2000-01-01T02:41:35.000Z</time>
      </trkpt>
      <trkpt lat="45.22993" lon="5.41372">
        <ele>477.1</ele>
        <time>2000-01-01T02:41:45.000Z</time>
      </trkpt>
      <trkpt lat="45.22999" lon="5.41339">
        <ele>471</ele>
        <time>2000-01-01T02:41:55.000Z</time>
      </trkpt>
      <trkpt lat="45.23001" lon="5.41324">
        <ele>472.9</ele>
        <time>2000-01-01T02:42:05.000Z</time>
      </trkpt>
      <trkpt lat="45.23001" lon="5.41313">
        <ele>472.1</ele>
        <time>2000-01-01T02:42:15.000Z</time>
      </trkpt>
      <trkpt lat="45.23" lon="5.413">
        <ele>468</ele>
        <time>2000-01-01T02:42:25.000Z</time>
      </trkpt>
      <trkpt lat="45.22999" lon="5.4129">
        <ele>470.7</ele>
        <time>2000-01-01T02:42:35.000Z</time>
      </trkpt>
      <trkpt lat="45.22997" lon="5.41279">
        <ele>470.1</ele>
        <time>2000-01-01T02:42:45.000Z</time>
      </trkpt>
      <trkpt lat="45.22994" lon="5.41268">
        <ele>468</ele>
        <time>2000-01-01T02:42:55.000Z</time>
      </trkpt>
      <trkpt lat="45.2299" lon="5.41259">
        <ele>468.6</ele>
        <time>2000-01-01T02:43:05.000Z</time>
      </trkpt>
      <trkpt lat="45.22986" lon="5.41251">
        <ele>468.2</ele>
        <time>2000-01-01T02:43:15.000Z</time>
      </trkpt>
      <trkpt lat="45.22974" lon="5.41232">
        <ele>468</ele>
        <time>2000-01-01T02:43:25.000Z</time>
      </trkpt>
      <trkpt lat="45.22966" lon="5.41221">
        <ele>467.3</ele>
        <time>2000-01-01T02:43:35.000Z</time>
      </trkpt>
      <trkpt lat="45.22921" lon="5.41171">
        <ele>469</ele>
        <time>2000-01-01T02:43:45.000Z</time>
      </trkpt>
      <trkpt lat="45.22914" lon="5.41165">
        <ele>464.1</ele>
        <time>2000-01-01T02:43:55.000Z</time>
      </trkpt>
      <trkpt lat="45.22905" lon="5.41157">
        <ele>469</ele>
        <time>2000-01-01T02:44:05.000Z</time>
      </trkpt>
      <trkpt lat="45.22883" lon="5.41146">
        <ele>469</ele>
        <time>2000-01-01T02:44:15.000Z</time>
      </trkpt>
      <trkpt lat="45.22877" lon="5.41141">
        <ele>465.2</ele>
        <time>2000-01-01T02:44:25.000Z</time>
      </trkpt>
      <trkpt lat="45.2287" lon="5.41134">
        <ele>464.8</ele>
        <time>2000-01-01T02:44:35.000Z</time>
      </trkpt>
      <trkpt lat="45.22861" lon="5.4112">
        <ele>467</ele>
        <time>2000-01-01T02:44:45.000Z</time>
      </trkpt>
      <trkpt lat="45.22857" lon="5.41114">
        <ele>463.1</ele>
        <time>2000-01-01T02:44:55.000Z</time>
      </trkpt>
      <trkpt lat="45.22831" lon="5.41092">
        <ele>465</ele>
        <time>2000-01-01T02:45:05.000Z</time>
      </trkpt>
      <trkpt lat="45.22824" lon="5.41086">
        <ele>462.5</ele>
        <time>2000-01-01T02:45:15.000Z</time>
      </trkpt>
      <trkpt lat="45.22814" lon="5.41079">
        <ele>463</ele>
        <time>2000-01-01T02:45:25.000Z</time>
      </trkpt>
      <trkpt lat="45.22799" lon="5.41072">
        <ele>462.9</ele>
        <time>2000-01-01T02:45:35.000Z</time>
      </trkpt>
      <trkpt lat="45.22794" lon="5.41069">
        <ele>462</ele>
        <time>2000-01-01T02:45:45.000Z</time>
      </trkpt>
      <trkpt lat="45.22783" lon="5.4106">
        <ele>463</ele>
        <time>2000-01-01T02:45:55.000Z</time>
      </trkpt>
      <trkpt lat="45.22779" lon="5.41057">
        <ele>463.1</ele>
        <time>2000-01-01T02:46:05.000Z</time>
      </trkpt>
      <trkpt lat="45.22758" lon="5.4105">
        <ele>463</ele>
        <time>2000-01-01T02:46:15.000Z</time>
      </trkpt>
      <trkpt lat="45.22747" lon="5.41044">
        <ele>465.1</ele>
        <time>2000-01-01T02:46:25.000Z</time>
      </trkpt>
      <trkpt lat="45.22737" lon="5.41037">
        <ele>464</ele>
        <time>2000-01-01T02:46:35.000Z</time>
      </trkpt>
      <trkpt lat="45.22722" lon="5.41025">
        <ele>465.7</ele>
        <time>2000-01-01T02:46:45.000Z</time>
      </trkpt>
      <trkpt lat="45.22719" lon="5.41022">
        <ele>464</ele>
        <time>2000-01-01T02:46:55.000Z</time>
      </trkpt>
      <trkpt lat="45.227" lon="5.40995">
        <ele>466</ele>
        <time>2000-01-01T02:47:05.000Z</time>
      </trkpt>
      <trkpt lat="45.22687" lon="5.40978">
        <ele>463.2</ele>
        <time>2000-01-01T02:47:15.000Z</time>
      </trkpt>
      <trkpt lat="45.22677" lon="5.40966">
        <ele>466</ele>
        <time>2000-01-01T02:47:25.000Z</time>
      </trkpt>
      <trkpt lat="45.22661" lon="5.40947">
        <ele>466</ele>
        <time>2000-01-01T02:47:35.000Z</time>
      </trkpt>
      <trkpt lat="45.22648" lon="5.40935">
        <ele>460.7</ele>
        <time>2000-01-01T02:47:45.000Z</time>
      </trkpt>
      <trkpt lat="45.22639" lon="5.40929">
        <ele>461</ele>
        <time>2000-01-01T02:47:55.000Z</time>
      </trkpt>
      <trkpt lat="45.22627" lon="5.40924">
        <ele>459.8</ele>
        <time>2000-01-01T02:48:05.000Z</time>
      </trkpt>
      <trkpt lat="45.22622" lon="5.40919">
        <ele>459.3</ele>
        <time>2000-01-01T02:48:15.000Z</time>
      </trkpt>
      <trkpt lat="45.2261" lon="5.40899">
        <ele>455</ele>
        <time>2000-01-01T02:48:25.000Z</time>
      </trkpt>
      <trkpt lat="45.22595" lon="5.40879">
        <ele>455</ele>
        <time>2000-01-01T02:48:35.000Z</time>
      </trkpt>
      <trkpt lat="45.22576" lon="5.40851">
        <ele>455</ele>
        <time>2000-01-01T02:48:45.000Z</time>
      </trkpt>
      <trkpt lat="45.22568" lon="5.40842">
        <ele>451.5</ele>
        <time>2000-01-01T02:48:55.000Z</time>
      </trkpt>
      <trkpt lat="45.22562" lon="5.40836">
        <ele>451.1</ele>
        <time>2000-01-01T02:49:05.000Z</time>
      </trkpt>
      <trkpt lat="45.22555" lon="5.40833">
        <ele>452</ele>
        <time>2000-01-01T02:49:15.000Z</time>
      </trkpt>
      <trkpt lat="45.22543" lon="5.40828">
        <ele>450.9</ele>
        <time>2000-01-01T02:49:25.000Z</time>
      </trkpt>
      <trkpt lat="45.2253" lon="5.40821">
        <ele>451</ele>
        <time>2000-01-01T02:49:35.000Z</time>
      </trkpt>
      <trkpt lat="45.22519" lon="5.40819">
        <ele>450.3</ele>
        <time>2000-01-01T02:49:45.000Z</time>
      </trkpt>
      <trkpt lat="45.22483" lon="5.40816">
        <ele>444</ele>
        <time>2000-01-01T02:49:55.000Z</time>
      </trkpt>
      <trkpt lat="45.22461" lon="5.40817">
        <ele>444</ele>
        <time>2000-01-01T02:50:05.000Z</time>
      </trkpt>
      <trkpt lat="45.22444" lon="5.40816">
        <ele>445.3</ele>
        <time>2000-01-01T02:50:15.000Z</time>
      </trkpt>
      <trkpt lat="45.22434" lon="5.40817">
        <ele>444</ele>
        <time>2000-01-01T02:50:25.000Z</time>
      </trkpt>
      <trkpt lat="45.22418" lon="5.40822">
        <ele>446.6</ele>
        <time>2000-01-01T02:50:35.000Z</time>
      </trkpt>
      <trkpt lat="45.22408" lon="5.40821">
        <ele>443</ele>
        <time>2000-01-01T02:50:45.000Z</time>
      </trkpt>
      <trkpt lat="45.22403" lon="5.4082">
        <ele>446.6</ele>
        <time>2000-01-01T02:50:55.000Z</time>
      </trkpt>
      <trkpt lat="45.22397" lon="5.40816">
        <ele>446</ele>
        <time>2000-01-01T02:51:05.000Z</time>
      </trkpt>
      <trkpt lat="45.2239" lon="5.40811">
        <ele>443</ele>
        <time>2000-01-01T02:51:15.000Z</time>
      </trkpt>
      <trkpt lat="45.22377" lon="5.40798">
        <ele>443</ele>
        <time>2000-01-01T02:51:25.000Z</time>
      </trkpt>
      <trkpt lat="45.2237" lon="5.40794">
        <ele>436</ele>
        <time>2000-01-01T02:51:35.000Z</time>
      </trkpt>
      <trkpt lat="45.22365" lon="5.40793">
        <ele>442.2</ele>
        <time>2000-01-01T02:51:45.000Z</time>
      </trkpt>
      <trkpt lat="45.22349" lon="5.40792">
        <ele>431</ele>
        <time>2000-01-01T02:51:55.000Z</time>
      </trkpt>
      <trkpt lat="45.2233" lon="5.40787">
        <ele>431</ele>
        <time>2000-01-01T02:52:05.000Z</time>
      </trkpt>
      <trkpt lat="45.22322" lon="5.40787">
        <ele>437.2</ele>
        <time>2000-01-01T02:52:15.000Z</time>
      </trkpt>
      <trkpt lat="45.22313" lon="5.4079">
        <ele>436.9</ele>
        <time>2000-01-01T02:52:25.000Z</time>
      </trkpt>
      <trkpt lat="45.22283" lon="5.40805">
        <ele>427</ele>
        <time>2000-01-01T02:52:35.000Z</time>
      </trkpt>
      <trkpt lat="45.22274" lon="5.40813">
        <ele>435.5</ele>
        <time>2000-01-01T02:52:45.000Z</time>
      </trkpt>
      <trkpt lat="45.22259" lon="5.40825">
        <ele>429</ele>
        <time>2000-01-01T02:52:55.000Z</time>
      </trkpt>
      <trkpt lat="45.22254" lon="5.40832">
        <ele>433.1</ele>
        <time>2000-01-01T02:53:05.000Z</time>
      </trkpt>
      <trkpt lat="45.22251" lon="5.40837">
        <ele>433</ele>
        <time>2000-01-01T02:53:15.000Z</time>
      </trkpt>
      <trkpt lat="45.22245" lon="5.40855">
        <ele>424</ele>
        <time>2000-01-01T02:53:25.000Z</time>
      </trkpt>
      <trkpt lat="45.22242" lon="5.40862">
        <ele>434.3</ele>
        <time>2000-01-01T02:53:35.000Z</time>
      </trkpt>
      <trkpt lat="45.22238" lon="5.40867">
        <ele>434.1</ele>
        <time>2000-01-01T02:53:45.000Z</time>
      </trkpt>
      <trkpt lat="45.22233" lon="5.40874">
        <ele>433.8</ele>
        <time>2000-01-01T02:53:55.000Z</time>
      </trkpt>
      <trkpt lat="45.22228" lon="5.40878">
        <ele>419</ele>
        <time>2000-01-01T02:54:05.000Z</time>
      </trkpt>
      <trkpt lat="45.22212" lon="5.4089">
        <ele>430.3</ele>
        <time>2000-01-01T02:54:15.000Z</time>
      </trkpt>
      <trkpt lat="45.222" lon="5.40896">
        <ele>417</ele>
        <time>2000-01-01T02:54:25.000Z</time>
      </trkpt>
      <trkpt lat="45.22187" lon="5.40899">
        <ele>425.8</ele>
        <time>2000-01-01T02:54:35.000Z</time>
      </trkpt>
      <trkpt lat="45.22159" lon="5.40901">
        <ele>416</ele>
        <time>2000-01-01T02:54:45.000Z</time>
      </trkpt>
      <trkpt lat="45.22137" lon="5.40901">
        <ele>416</ele>
        <time>2000-01-01T02:54:55.000Z</time>
      </trkpt>
      <trkpt lat="45.22133" lon="5.409">
        <ele>413.4</ele>
        <time>2000-01-01T02:55:05.000Z</time>
      </trkpt>
      <trkpt lat="45.22126" lon="5.40896">
        <ele>411.3</ele>
        <time>2000-01-01T02:55:15.000Z</time>
      </trkpt>
      <trkpt lat="45.22113" lon="5.40894">
        <ele>416</ele>
        <time>2000-01-01T02:55:25.000Z</time>
      </trkpt>
      <trkpt lat="45.22106" lon="5.40892">
        <ele>409.3</ele>
        <time>2000-01-01T02:55:35.000Z</time>
      </trkpt>
      <trkpt lat="45.221" lon="5.40888">
        <ele>409.5</ele>
        <time>2000-01-01T02:55:45.000Z</time>
      </trkpt>
      <trkpt lat="45.22094" lon="5.40884">
        <ele>412</ele>
        <time>2000-01-01T02:55:55.000Z</time>
      </trkpt>
      <trkpt lat="45.22089" lon="5.40876">
        <ele>408.8</ele>
        <time>2000-01-01T02:56:05.000Z</time>
      </trkpt>
      <trkpt lat="45.22077" lon="5.40847">
        <ele>417</ele>
        <time>2000-01-01T02:56:15.000Z</time>
      </trkpt>
      <trkpt lat="45.22063" lon="5.40823">
        <ele>417</ele>
        <time>2000-01-01T02:56:25.000Z</time>
      </trkpt>
      <trkpt lat="45.22058" lon="5.40811">
        <ele>413.2</ele>
        <time>2000-01-01T02:56:35.000Z</time>
      </trkpt>
      <trkpt lat="45.22052" lon="5.40792">
        <ele>417</ele>
        <time>2000-01-01T02:56:45.000Z</time>
      </trkpt>
      <trkpt lat="45.22049" lon="5.40787">
        <ele>413.8</ele>
        <time>2000-01-01T02:56:55.000Z</time>
      </trkpt>
      <trkpt lat="45.22046" lon="5.40782">
        <ele>414.2</ele>
        <time>2000-01-01T02:57:05.000Z</time>
      </trkpt>
      <trkpt lat="45.22033" lon="5.40766">
        <ele>415</ele>
        <time>2000-01-01T02:57:15.000Z</time>
      </trkpt>
      <trkpt lat="45.22026" lon="5.4076">
        <ele>415</ele>
        <time>2000-01-01T02:57:25.000Z</time>
      </trkpt>
      <trkpt lat="45.22022" lon="5.40757">
        <ele>414.4</ele>
        <time>2000-01-01T02:57:35.000Z</time>
      </trkpt>
      <trkpt lat="45.21991" lon="5.40744">
        <ele>414</ele>
        <time>2000-01-01T02:57:45.000Z</time>
      </trkpt>
      <trkpt lat="45.21984" lon="5.40741">
        <ele>410.5</ele>
        <time>2000-01-01T02:57:55.000Z</time>
      </trkpt>
      <trkpt lat="45.21983" lon="5.40746">
        <ele>412.5</ele>
        <time>2000-01-01T02:58:05.000Z</time>
      </trkpt>
      <trkpt lat="45.21982" lon="5.40755">
        <ele>415</ele>
        <time>2000-01-01T02:58:15.000Z</time>
      </trkpt>
      <trkpt lat="45.21981" lon="5.4076">
        <ele>414</ele>
        <time>2000-01-01T02:58:25.000Z</time>
      </trkpt>
      <trkpt lat="45.21978" lon="5.40766">
        <ele>416.8</ele>
        <time>2000-01-01T02:58:35.000Z</time>
      </trkpt>
      <trkpt lat="45.21975" lon="5.40771">
        <ele>417.3</ele>
        <time>2000-01-01T02:58:45.000Z</time>
      </trkpt>
      <trkpt lat="45.21971" lon="5.40772">
        <ele>416.8</ele>
        <time>2000-01-01T02:58:55.000Z</time>
      </trkpt>
      <trkpt lat="45.21964" lon="5.40773">
        <ele>414</ele>
        <time>2000-01-01T02:59:05.000Z</time>
      </trkpt>
      <trkpt lat="45.21957" lon="5.40772">
        <ele>412.8</ele>
        <time>2000-01-01T02:59:15.000Z</time>
      </trkpt>
      <trkpt lat="45.21947" lon="5.40769">
        <ele>410</ele>
        <time>2000-01-01T02:59:25.000Z</time>
      </trkpt>
      <trkpt lat="45.2194" lon="5.40769">
        <ele>412</ele>
        <time>2000-01-01T02:59:35.000Z</time>
      </trkpt>
      <trkpt lat="45.21936" lon="5.4077">
        <ele>406.6</ele>
        <time>2000-01-01T02:59:45.000Z</time>
      </trkpt>
      <trkpt lat="45.21931" lon="5.40772">
        <ele>405</ele>
        <time>2000-01-01T02:59:55.000Z</time>
      </trkpt>
      <trkpt lat="45.21927" lon="5.40775">
        <ele>403.5</ele>
        <time>2000-01-01T03:00:05.000Z</time>
      </trkpt>
      <trkpt lat="45.21923" lon="5.4078">
        <ele>410</ele>
        <time>2000-01-01T03:00:15.000Z</time>
      </trkpt>
      <trkpt lat="45.21919" lon="5.40787">
        <ele>400.1</ele>
        <time>2000-01-01T03:00:25.000Z</time>
      </trkpt>
      <trkpt lat="45.21916" lon="5.40797">
        <ele>398.4</ele>
        <time>2000-01-01T03:00:35.000Z</time>
      </trkpt>
      <trkpt lat="45.21909" lon="5.40833">
        <ele>400</ele>
        <time>2000-01-01T03:00:45.000Z</time>
      </trkpt>
      <trkpt lat="45.21905" lon="5.4085">
        <ele>392.7</ele>
        <time>2000-01-01T03:00:55.000Z</time>
      </trkpt>
      <trkpt lat="45.21904" lon="5.40858">
        <ele>392</ele>
        <time>2000-01-01T03:01:05.000Z</time>
      </trkpt>
      <trkpt lat="45.21903" lon="5.40866">
        <ele>397</ele>
        <time>2000-01-01T03:01:15.000Z</time>
      </trkpt>
      <trkpt lat="45.21905" lon="5.40882">
        <ele>391.3</ele>
        <time>2000-01-01T03:01:25.000Z</time>
      </trkpt>
      <trkpt lat="45.21907" lon="5.40893">
        <ele>397</ele>
        <time>2000-01-01T03:01:35.000Z</time>
      </trkpt>
      <trkpt lat="45.21909" lon="5.40902">
        <ele>391.6</ele>
        <time>2000-01-01T03:01:45.000Z</time>
      </trkpt>
      <trkpt lat="45.21919" lon="5.40926">
        <ele>396</ele>
        <time>2000-01-01T03:01:55.000Z</time>
      </trkpt>
      <trkpt lat="45.21927" lon="5.40948">
        <ele>393.8</ele>
        <time>2000-01-01T03:02:05.000Z</time>
      </trkpt>
      <trkpt lat="45.21929" lon="5.40957">
        <ele>395</ele>
        <time>2000-01-01T03:02:15.000Z</time>
      </trkpt>
      <trkpt lat="45.2193" lon="5.40963">
        <ele>394.2</ele>
        <time>2000-01-01T03:02:25.000Z</time>
      </trkpt>
      <trkpt lat="45.2193" lon="5.4097">
        <ele>393.9</ele>
        <time>2000-01-01T03:02:35.000Z</time>
      </trkpt>
      <trkpt lat="45.2193" lon="5.40977">
        <ele>393.6</ele>
        <time>2000-01-01T03:02:45.000Z</time>
      </trkpt>
      <trkpt lat="45.21927" lon="5.40991">
        <ele>391</ele>
        <time>2000-01-01T03:02:55.000Z</time>
      </trkpt>
      <trkpt lat="45.21926" lon="5.40999">
        <ele>391.4</ele>
        <time>2000-01-01T03:03:05.000Z</time>
      </trkpt>
      <trkpt lat="45.21926" lon="5.41006">
        <ele>391.1</ele>
        <time>2000-01-01T03:03:15.000Z</time>
      </trkpt>
      <trkpt lat="45.21927" lon="5.41012">
        <ele>391</ele>
        <time>2000-01-01T03:03:25.000Z</time>
      </trkpt>
      <trkpt lat="45.2193" lon="5.41021">
        <ele>391</ele>
        <time>2000-01-01T03:03:35.000Z</time>
      </trkpt>
      <trkpt lat="45.21934" lon="5.4103">
        <ele>391.6</ele>
        <time>2000-01-01T03:03:45.000Z</time>
      </trkpt>
      <trkpt lat="45.21944" lon="5.41051">
        <ele>393</ele>
        <time>2000-01-01T03:03:55.000Z</time>
      </trkpt>
      <trkpt lat="45.21949" lon="5.41057">
        <ele>393.2</ele>
        <time>2000-01-01T03:04:05.000Z</time>
      </trkpt>
      <trkpt lat="45.21967" lon="5.41075">
        <ele>401</ele>
        <time>2000-01-01T03:04:15.000Z</time>
      </trkpt>
      <trkpt lat="45.21975" lon="5.41086">
        <ele>397.6</ele>
        <time>2000-01-01T03:04:25.000Z</time>
      </trkpt>
      <trkpt lat="45.21985" lon="5.41098">
        <ele>401</ele>
        <time>2000-01-01T03:04:35.000Z</time>
      </trkpt>
      <trkpt lat="45.22006" lon="5.41118">
        <ele>411</ele>
        <time>2000-01-01T03:04:45.000Z</time>
      </trkpt>
      <trkpt lat="45.22028" lon="5.41133">
        <ele>417</ele>
        <time>2000-01-01T03:04:55.000Z</time>
      </trkpt>
      <trkpt lat="45.22037" lon="5.41145">
        <ele>409.6</ele>
        <time>2000-01-01T03:05:05.000Z</time>
      </trkpt>
      <trkpt lat="45.22044" lon="5.41152">
        <ele>417</ele>
        <time>2000-01-01T03:05:15.000Z</time>
      </trkpt>
      <trkpt lat="45.22066" lon="5.4118">
        <ele>429</ele>
        <time>2000-01-01T03:05:25.000Z</time>
      </trkpt>
      <trkpt lat="45.22084" lon="5.41196">
        <ele>432</ele>
        <time>2000-01-01T03:05:35.000Z</time>
      </trkpt>
      <trkpt lat="45.22101" lon="5.41214">
        <ele>439</ele>
        <time>2000-01-01T03:05:45.000Z</time>
      </trkpt>
      <trkpt lat="45.22106" lon="5.41217">
        <ele>421.4</ele>
        <time>2000-01-01T03:05:55.000Z</time>
      </trkpt>
      <trkpt lat="45.22115" lon="5.41221">
        <ele>423.7</ele>
        <time>2000-01-01T03:06:05.000Z</time>
      </trkpt>
      <trkpt lat="45.22121" lon="5.41225">
        <ele>439</ele>
        <time>2000-01-01T03:06:15.000Z</time>
      </trkpt>
      <trkpt lat="45.22134" lon="5.4123">
        <ele>428.3</ele>
        <time>2000-01-01T03:06:25.000Z</time>
      </trkpt>
      <trkpt lat="45.2214" lon="5.41232">
        <ele>448</ele>
        <time>2000-01-01T03:06:35.000Z</time>
      </trkpt>
      <trkpt lat="45.2215" lon="5.41237">
        <ele>432.5</ele>
        <time>2000-01-01T03:06:45.000Z</time>
      </trkpt>
      <trkpt lat="45.22156" lon="5.41242">
        <ele>433.4</ele>
        <time>2000-01-01T03:06:55.000Z</time>
      </trkpt>
      <trkpt lat="45.2218" lon="5.41261">
        <ele>455</ele>
        <time>2000-01-01T03:07:05.000Z</time>
      </trkpt>
      <trkpt lat="45.22207" lon="5.41278">
        <ele>458</ele>
        <time>2000-01-01T03:07:15.000Z</time>
      </trkpt>
      <trkpt lat="45.22213" lon="5.41281">
        <ele>444.4</ele>
        <time>2000-01-01T03:07:25.000Z</time>
      </trkpt>
      <trkpt lat="45.22225" lon="5.41283">
        <ele>448.4</ele>
        <time>2000-01-01T03:07:35.000Z</time>
      </trkpt>
      <trkpt lat="45.22233" lon="5.41288">
        <ele>461</ele>
        <time>2000-01-01T03:07:45.000Z</time>
      </trkpt>
      <trkpt lat="45.2224" lon="5.41293">
        <ele>450.7</ele>
        <time>2000-01-01T03:07:55.000Z</time>
      </trkpt>
      <trkpt lat="45.22264" lon="5.41316">
        <ele>465</ele>
        <time>2000-01-01T03:08:05.000Z</time>
      </trkpt>
      <trkpt lat="45.22275" lon="5.41324">
        <ele>454.1</ele>
        <time>2000-01-01T03:08:15.000Z</time>
      </trkpt>
      <trkpt lat="45.22288" lon="5.41345">
        <ele>462</ele>
        <time>2000-01-01T03:08:25.000Z</time>
      </trkpt>
      <trkpt lat="45.22293" lon="5.4135">
        <ele>452</ele>
        <time>2000-01-01T03:08:35.000Z</time>
      </trkpt>
      <trkpt lat="45.22301" lon="5.41358">
        <ele>451.7</ele>
        <time>2000-01-01T03:08:45.000Z</time>
      </trkpt>
      <trkpt lat="45.22307" lon="5.41364">
        <ele>460</ele>
        <time>2000-01-01T03:08:55.000Z</time>
      </trkpt>
      <trkpt lat="45.22326" lon="5.41391">
        <ele>459</ele>
        <time>2000-01-01T03:09:05.000Z</time>
      </trkpt>
      <trkpt lat="45.22343" lon="5.41414">
        <ele>456</ele>
        <time>2000-01-01T03:09:15.000Z</time>
      </trkpt>
      <trkpt lat="45.22356" lon="5.4143">
        <ele>445</ele>
        <time>2000-01-01T03:09:25.000Z</time>
      </trkpt>
      <trkpt lat="45.22371" lon="5.41448">
        <ele>456</ele>
        <time>2000-01-01T03:09:35.000Z</time>
      </trkpt>
      <trkpt lat="45.22383" lon="5.41462">
        <ele>446.7</ele>
        <time>2000-01-01T03:09:45.000Z</time>
      </trkpt>
      <trkpt lat="45.224" lon="5.41489">
        <ele>456</ele>
        <time>2000-01-01T03:09:55.000Z</time>
      </trkpt>
      <trkpt lat="45.22409" lon="5.415">
        <ele>448.4</ele>
        <time>2000-01-01T03:10:05.000Z</time>
      </trkpt>
      <trkpt lat="45.22423" lon="5.41519">
        <ele>453</ele>
        <time>2000-01-01T03:10:15.000Z</time>
      </trkpt>
      <trkpt lat="45.22439" lon="5.41538">
        <ele>458</ele>
        <time>2000-01-01T03:10:25.000Z</time>
      </trkpt>
      <trkpt lat="45.22447" lon="5.41553">
        <ele>452.6</ele>
        <time>2000-01-01T03:10:35.000Z</time>
      </trkpt>
      <trkpt lat="45.22473" lon="5.41591">
        <ele>463</ele>
        <time>2000-01-01T03:10:45.000Z</time>
      </trkpt>
      <trkpt lat="45.22491" lon="5.41621">
        <ele>463</ele>
        <time>2000-01-01T03:10:55.000Z</time>
      </trkpt>
      <trkpt lat="45.225" lon="5.41632">
        <ele>452</ele>
        <time>2000-01-01T03:11:05.000Z</time>
      </trkpt>
      <trkpt lat="45.2253" lon="5.41668">
        <ele>460</ele>
        <time>2000-01-01T03:11:15.000Z</time>
      </trkpt>
      <trkpt lat="45.22547" lon="5.41691">
        <ele>462</ele>
        <time>2000-01-01T03:11:25.000Z</time>
      </trkpt>
      <trkpt lat="45.22551" lon="5.41697">
        <ele>459.7</ele>
        <time>2000-01-01T03:11:35.000Z</time>
      </trkpt>
      <trkpt lat="45.2256" lon="5.41715">
        <ele>465</ele>
        <time>2000-01-01T03:11:45.000Z</time>
      </trkpt>
      <trkpt lat="45.22568" lon="5.41726">
        <ele>462.3</ele>
        <time>2000-01-01T03:11:55.000Z</time>
      </trkpt>
      <trkpt lat="45.22572" lon="5.41734">
        <ele>462.6</ele>
        <time>2000-01-01T03:12:05.000Z</time>
      </trkpt>
      <trkpt lat="45.22579" lon="5.41753">
        <ele>465</ele>
        <time>2000-01-01T03:12:15.000Z</time>
      </trkpt>
      <trkpt lat="45.22598" lon="5.41795">
        <ele>465</ele>
        <time>2000-01-01T03:12:25.000Z</time>
      </trkpt>
      <trkpt lat="45.22609" lon="5.41822">
        <ele>467</ele>
        <time>2000-01-01T03:12:35.000Z</time>
      </trkpt>
      <trkpt lat="45.22612" lon="5.41829">
        <ele>462.8</ele>
        <time>2000-01-01T03:12:45.000Z</time>
      </trkpt>
      <trkpt lat="45.22615" lon="5.41832">
        <ele>463</ele>
        <time>2000-01-01T03:12:55.000Z</time>
      </trkpt>
      <trkpt lat="45.22619" lon="5.41836">
        <ele>463.2</ele>
        <time>2000-01-01T03:13:05.000Z</time>
      </trkpt>
      <trkpt lat="45.22632" lon="5.41841">
        <ele>474</ele>
        <time>2000-01-01T03:13:15.000Z</time>
      </trkpt>
      <trkpt lat="45.22661" lon="5.41856">
        <ele>474</ele>
        <time>2000-01-01T03:13:25.000Z</time>
      </trkpt>
      <trkpt lat="45.22667" lon="5.4186">
        <ele>467.3</ele>
        <time>2000-01-01T03:13:35.000Z</time>
      </trkpt>
      <trkpt lat="45.22675" lon="5.41869">
        <ele>466.9</ele>
        <time>2000-01-01T03:13:45.000Z</time>
      </trkpt>
      <trkpt lat="45.22689" lon="5.41886">
        <ele>474</ele>
        <time>2000-01-01T03:13:55.000Z</time>
      </trkpt>
      <trkpt lat="45.22698" lon="5.41895">
        <ele>467.1</ele>
        <time>2000-01-01T03:14:05.000Z</time>
      </trkpt>
      <trkpt lat="45.22706" lon="5.41907">
        <ele>475</ele>
        <time>2000-01-01T03:14:15.000Z</time>
      </trkpt>
      <trkpt lat="45.22718" lon="5.41922">
        <ele>468.4</ele>
        <time>2000-01-01T03:14:25.000Z</time>
      </trkpt>
      <trkpt lat="45.22723" lon="5.41934">
        <ele>471</ele>
        <time>2000-01-01T03:14:35.000Z</time>
      </trkpt>
      <trkpt lat="45.22724" lon="5.41937">
        <ele>468.2</ele>
        <time>2000-01-01T03:14:45.000Z</time>
      </trkpt>
      <trkpt lat="45.22724" lon="5.41939">
        <ele>467.9</ele>
        <time>2000-01-01T03:14:55.000Z</time>
      </trkpt>
      <trkpt lat="45.22723" lon="5.41944">
        <ele>467.2</ele>
        <time>2000-01-01T03:15:05.000Z</time>
      </trkpt>
      <trkpt lat="45.22721" lon="5.41947">
        <ele>466.6</ele>
        <time>2000-01-01T03:15:15.000Z</time>
      </trkpt>
      <trkpt lat="45.22716" lon="5.41948">
        <ele>465.6</ele>
        <time>2000-01-01T03:15:25.000Z</time>
      </trkpt>
      <trkpt lat="45.22692" lon="5.41944">
        <ele>468</ele>
        <time>2000-01-01T03:15:35.000Z</time>
      </trkpt>
      <trkpt lat="45.22686" lon="5.41942">
        <ele>458.7</ele>
        <time>2000-01-01T03:15:45.000Z</time>
      </trkpt>
      <trkpt lat="45.2268" lon="5.41938">
        <ele>457.2</ele>
        <time>2000-01-01T03:15:55.000Z</time>
      </trkpt>
      <trkpt lat="45.22675" lon="5.41937">
        <ele>455.7</ele>
        <time>2000-01-01T03:16:05.000Z</time>
      </trkpt>
      <trkpt lat="45.22664" lon="5.41932">
        <ele>468</ele>
        <time>2000-01-01T03:16:15.000Z</time>
      </trkpt>
      <trkpt lat="45.22655" lon="5.4193">
        <ele>451</ele>
        <time>2000-01-01T03:16:25.000Z</time>
      </trkpt>
      <trkpt lat="45.22639" lon="5.41924">
        <ele>464</ele>
        <time>2000-01-01T03:16:35.000Z</time>
      </trkpt>
      <trkpt lat="45.22634" lon="5.41924">
        <ele>446</ele>
        <time>2000-01-01T03:16:45.000Z</time>
      </trkpt>
      <trkpt lat="45.22624" lon="5.41927">
        <ele>442.5</ele>
        <time>2000-01-01T03:16:55.000Z</time>
      </trkpt>
      <trkpt lat="45.22617" lon="5.41927">
        <ele>454</ele>
        <time>2000-01-01T03:17:05.000Z</time>
      </trkpt>
      <trkpt lat="45.22605" lon="5.41926">
        <ele>436</ele>
        <time>2000-01-01T03:17:15.000Z</time>
      </trkpt>
      <trkpt lat="45.22597" lon="5.41924">
        <ele>440</ele>
        <time>2000-01-01T03:17:25.000Z</time>
      </trkpt>
      <trkpt lat="45.2259" lon="5.4192">
        <ele>431.2</ele>
        <time>2000-01-01T03:17:35.000Z</time>
      </trkpt>
      <trkpt lat="45.22584" lon="5.41916">
        <ele>429.4</ele>
        <time>2000-01-01T03:17:45.000Z</time>
      </trkpt>
      <trkpt lat="45.22565" lon="5.41899">
        <ele>434</ele>
        <time>2000-01-01T03:17:55.000Z</time>
      </trkpt>
      <trkpt lat="45.22542" lon="5.41883">
        <ele>423</ele>
        <time>2000-01-01T03:18:05.000Z</time>
      </trkpt>
      <trkpt lat="45.22538" lon="5.41879">
        <ele>423.5</ele>
        <time>2000-01-01T03:18:15.000Z</time>
      </trkpt>
      <trkpt lat="45.22529" lon="5.41868">
        <ele>422.4</ele>
        <time>2000-01-01T03:18:25.000Z</time>
      </trkpt>
      <trkpt lat="45.22518" lon="5.41862">
        <ele>425</ele>
        <time>2000-01-01T03:18:35.000Z</time>
      </trkpt>
      <trkpt lat="45.22511" lon="5.41856">
        <ele>418.9</ele>
        <time>2000-01-01T03:18:45.000Z</time>
      </trkpt>
      <trkpt lat="45.22497" lon="5.41842">
        <ele>426</ele>
        <time>2000-01-01T03:18:55.000Z</time>
      </trkpt>
      <trkpt lat="45.22472" lon="5.41813">
        <ele>421</ele>
        <time>2000-01-01T03:19:05.000Z</time>
      </trkpt>
      <trkpt lat="45.22463" lon="5.41806">
        <ele>412.9</ele>
        <time>2000-01-01T03:19:15.000Z</time>
      </trkpt>
      <trkpt lat="45.22458" lon="5.41803">
        <ele>412.2</ele>
        <time>2000-01-01T03:19:25.000Z</time>
      </trkpt>
      <trkpt lat="45.22445" lon="5.41801">
        <ele>416</ele>
        <time>2000-01-01T03:19:35.000Z</time>
      </trkpt>
      <trkpt lat="45.22439" lon="5.41796">
        <ele>409</ele>
        <time>2000-01-01T03:19:45.000Z</time>
      </trkpt>
      <trkpt lat="45.22437" lon="5.41796">
        <ele>408.6</ele>
        <time>2000-01-01T03:19:55.000Z</time>
      </trkpt>
      <trkpt lat="45.22427" lon="5.41798">
        <ele>406.5</ele>
        <time>2000-01-01T03:20:05.000Z</time>
      </trkpt>
      <trkpt lat="45.22421" lon="5.41798">
        <ele>413</ele>
        <time>2000-01-01T03:20:15.000Z</time>
      </trkpt>
      <trkpt lat="45.22412" lon="5.41796">
        <ele>404</ele>
        <time>2000-01-01T03:20:25.000Z</time>
      </trkpt>
      <trkpt lat="45.22404" lon="5.41792">
        <ele>403.2</ele>
        <time>2000-01-01T03:20:35.000Z</time>
      </trkpt>
      <trkpt lat="45.22376" lon="5.41774">
        <ele>400</ele>
        <time>2000-01-01T03:20:45.000Z</time>
      </trkpt>
      <trkpt lat="45.22365" lon="5.41766">
        <ele>398.9</ele>
        <time>2000-01-01T03:20:55.000Z</time>
      </trkpt>
      <trkpt lat="45.22365" lon="5.41766">
        <ele>398.9</ele>
        <time>2000-01-01T03:21:05.000Z</time>
      </trkpt>
      <trkpt lat="45.22366" lon="5.41767">
        <ele>399</ele>
        <time>2000-01-01T03:21:15.000Z</time>
      </trkpt>
      <trkpt lat="45.22364" lon="5.41769">
        <ele>398.4</ele>
        <time>2000-01-01T03:21:25.000Z</time>
      </trkpt>
      <trkpt lat="45.22363" lon="5.41771">
        <ele>398.1</ele>
        <time>2000-01-01T03:21:35.000Z</time>
      </trkpt>
      <trkpt lat="45.22351" lon="5.4182">
        <ele>399</ele>
        <time>2000-01-01T03:21:45.000Z</time>
      </trkpt>
      <trkpt lat="45.22349" lon="5.41826">
        <ele>395</ele>
        <time>2000-01-01T03:21:55.000Z</time>
      </trkpt>
      <trkpt lat="45.22341" lon="5.41845">
        <ele>393</ele>
        <time>2000-01-01T03:22:05.000Z</time>
      </trkpt>
      <trkpt lat="45.22332" lon="5.41874">
        <ele>391</ele>
        <time>2000-01-01T03:22:15.000Z</time>
      </trkpt>
      <trkpt lat="45.22332" lon="5.41878">
        <ele>389.7</ele>
        <time>2000-01-01T03:22:25.000Z</time>
      </trkpt>
      <trkpt lat="45.22331" lon="5.41885">
        <ele>389.2</ele>
        <time>2000-01-01T03:22:35.000Z</time>
      </trkpt>
      <trkpt lat="45.22332" lon="5.41908">
        <ele>391</ele>
        <time>2000-01-01T03:22:45.000Z</time>
      </trkpt>
      <trkpt lat="45.22331" lon="5.41919">
        <ele>386.8</ele>
        <time>2000-01-01T03:22:55.000Z</time>
      </trkpt>
      <trkpt lat="45.2233" lon="5.41926">
        <ele>386.5</ele>
        <time>2000-01-01T03:23:05.000Z</time>
      </trkpt>
      <trkpt lat="45.22326" lon="5.41937">
        <ele>389</ele>
        <time>2000-01-01T03:23:15.000Z</time>
      </trkpt>
      <trkpt lat="45.22315" lon="5.41964">
        <ele>386</ele>
        <time>2000-01-01T03:23:25.000Z</time>
      </trkpt>
      <trkpt lat="45.22313" lon="5.4197">
        <ele>382.7</ele>
        <time>2000-01-01T03:23:35.000Z</time>
      </trkpt>
      <trkpt lat="45.22309" lon="5.41975">
        <ele>382</ele>
        <time>2000-01-01T03:23:45.000Z</time>
      </trkpt>
      <trkpt lat="45.22303" lon="5.41983">
        <ele>381.1</ele>
        <time>2000-01-01T03:23:55.000Z</time>
      </trkpt>
      <trkpt lat="45.22283" lon="5.42004">
        <ele>380</ele>
        <time>2000-01-01T03:24:05.000Z</time>
      </trkpt>
      <trkpt lat="45.22267" lon="5.42023">
        <ele>377</ele>
        <time>2000-01-01T03:24:15.000Z</time>
      </trkpt>
      <trkpt lat="45.2226" lon="5.42029">
        <ele>375</ele>
        <time>2000-01-01T03:24:25.000Z</time>
      </trkpt>
      <trkpt lat="45.22255" lon="5.42032">
        <ele>374.3</ele>
        <time>2000-01-01T03:24:35.000Z</time>
      </trkpt>
      <trkpt lat="45.2225" lon="5.42033">
        <ele>373.8</ele>
        <time>2000-01-01T03:24:45.000Z</time>
      </trkpt>
      <trkpt lat="45.22244" lon="5.42033">
        <ele>377</ele>
        <time>2000-01-01T03:24:55.000Z</time>
      </trkpt>
      <trkpt lat="45.22232" lon="5.42032">
        <ele>371.2</ele>
        <time>2000-01-01T03:25:05.000Z</time>
      </trkpt>
      <trkpt lat="45.22218" lon="5.42027">
        <ele>374</ele>
        <time>2000-01-01T03:25:15.000Z</time>
      </trkpt>
      <trkpt lat="45.222" lon="5.42015">
        <ele>373</ele>
        <time>2000-01-01T03:25:25.000Z</time>
      </trkpt>
      <trkpt lat="45.22197" lon="5.42014">
        <ele>366</ele>
        <time>2000-01-01T03:25:35.000Z</time>
      </trkpt>
      <trkpt lat="45.22195" lon="5.42015">
        <ele>365.6</ele>
        <time>2000-01-01T03:25:45.000Z</time>
      </trkpt>
      <trkpt lat="45.22193" lon="5.42017">
        <ele>364.9</ele>
        <time>2000-01-01T03:25:55.000Z</time>
      </trkpt>
      <trkpt lat="45.22192" lon="5.42019">
        <ele>364.6</ele>
        <time>2000-01-01T03:26:05.000Z</time>
      </trkpt>
      <trkpt lat="45.22193" lon="5.42023">
        <ele>364.7</ele>
        <time>2000-01-01T03:26:15.000Z</time>
      </trkpt>
      <trkpt lat="45.22194" lon="5.42027">
        <ele>364.9</ele>
        <time>2000-01-01T03:26:25.000Z</time>
      </trkpt>
      <trkpt lat="45.22204" lon="5.42046">
        <ele>369</ele>
        <time>2000-01-01T03:26:35.000Z</time>
      </trkpt>
      <trkpt lat="45.22208" lon="5.42057">
        <ele>364.7</ele>
        <time>2000-01-01T03:26:45.000Z</time>
      </trkpt>
      <trkpt lat="45.22211" lon="5.4207">
        <ele>363.7</ele>
        <time>2000-01-01T03:26:55.000Z</time>
      </trkpt>
      <trkpt lat="45.22213" lon="5.42091">
        <ele>366</ele>
        <time>2000-01-01T03:27:05.000Z</time>
      </trkpt>
      <trkpt lat="45.22214" lon="5.42099">
        <ele>360.3</ele>
        <time>2000-01-01T03:27:15.000Z</time>
      </trkpt>
      <trkpt lat="45.22216" lon="5.42102">
        <ele>360.2</ele>
        <time>2000-01-01T03:27:25.000Z</time>
      </trkpt>
      <trkpt lat="45.22217" lon="5.42106">
        <ele>359.8</ele>
        <time>2000-01-01T03:27:35.000Z</time>
      </trkpt>
      <trkpt lat="45.22221" lon="5.42111">
        <ele>359.8</ele>
        <time>2000-01-01T03:27:45.000Z</time>
      </trkpt>
      <trkpt lat="45.22225" lon="5.42115">
        <ele>362</ele>
        <time>2000-01-01T03:27:55.000Z</time>
      </trkpt>
      <trkpt lat="45.22234" lon="5.42119">
        <ele>361</ele>
        <time>2000-01-01T03:28:05.000Z</time>
      </trkpt>
      <trkpt lat="45.22236" lon="5.42124">
        <ele>360.8</ele>
        <time>2000-01-01T03:28:15.000Z</time>
      </trkpt>
      <trkpt lat="45.22237" lon="5.4213">
        <ele>360.4</ele>
        <time>2000-01-01T03:28:25.000Z</time>
      </trkpt>
      <trkpt lat="45.22236" lon="5.42141">
        <ele>359</ele>
        <time>2000-01-01T03:28:35.000Z</time>
      </trkpt>
      <trkpt lat="45.22234" lon="5.42151">
        <ele>358.2</ele>
        <time>2000-01-01T03:28:45.000Z</time>
      </trkpt>
      <trkpt lat="45.2223" lon="5.4216">
        <ele>356.9</ele>
        <time>2000-01-01T03:28:55.000Z</time>
      </trkpt>
      <trkpt lat="45.22227" lon="5.42163">
        <ele>358</ele>
        <time>2000-01-01T03:29:05.000Z</time>
      </trkpt>
      <trkpt lat="45.22225" lon="5.42164">
        <ele>355.7</ele>
        <time>2000-01-01T03:29:15.000Z</time>
      </trkpt>
      <trkpt lat="45.22216" lon="5.42162">
        <ele>354.8</ele>
        <time>2000-01-01T03:29:25.000Z</time>
      </trkpt>
      <trkpt lat="45.22212" lon="5.42163">
        <ele>354.4</ele>
        <time>2000-01-01T03:29:35.000Z</time>
      </trkpt>
      <trkpt lat="45.22207" lon="5.42167">
        <ele>356</ele>
        <time>2000-01-01T03:29:45.000Z</time>
      </trkpt>
      <trkpt lat="45.22187" lon="5.4219">
        <ele>353</ele>
        <time>2000-01-01T03:29:55.000Z</time>
      </trkpt>
      <trkpt lat="45.22171" lon="5.4221">
        <ele>353</ele>
        <time>2000-01-01T03:30:05.000Z</time>
      </trkpt>
      <trkpt lat="45.22147" lon="5.42243">
        <ele>353</ele>
        <time>2000-01-01T03:30:15.000Z</time>
      </trkpt>
      <trkpt lat="45.22129" lon="5.42264">
        <ele>353</ele>
        <time>2000-01-01T03:30:25.000Z</time>
      </trkpt>
      <trkpt lat="45.22112" lon="5.4229">
        <ele>356</ele>
        <time>2000-01-01T03:30:35.000Z</time>
      </trkpt>
      <trkpt lat="45.22097" lon="5.42314">
        <ele>355</ele>
        <time>2000-01-01T03:30:45.000Z</time>
      </trkpt>
      <trkpt lat="45.22086" lon="5.4233">
        <ele>349.1</ele>
        <time>2000-01-01T03:30:55.000Z</time>
      </trkpt>
      <trkpt lat="45.2208" lon="5.42337">
        <ele>358</ele>
        <time>2000-01-01T03:31:05.000Z</time>
      </trkpt>
      <trkpt lat="45.22063" lon="5.42355">
        <ele>361</ele>
        <time>2000-01-01T03:31:15.000Z</time>
      </trkpt>
      <trkpt lat="45.2205" lon="5.42371">
        <ele>349.3</ele>
        <time>2000-01-01T03:31:25.000Z</time>
      </trkpt>
      <trkpt lat="45.22037" lon="5.42385">
        <ele>370</ele>
        <time>2000-01-01T03:31:35.000Z</time>
      </trkpt>
      <trkpt lat="45.22028" lon="5.42397">
        <ele>345.1</ele>
        <time>2000-01-01T03:31:45.000Z</time>
      </trkpt>
      <trkpt lat="45.22024" lon="5.42401">
        <ele>343.9</ele>
        <time>2000-01-01T03:31:55.000Z</time>
      </trkpt>
      <trkpt lat="45.22016" lon="5.42407">
        <ele>367</ele>
        <time>2000-01-01T03:32:05.000Z</time>
      </trkpt>
      <trkpt lat="45.22008" lon="5.4241">
        <ele>340.9</ele>
        <time>2000-01-01T03:32:15.000Z</time>
      </trkpt>
      <trkpt lat="45.21992" lon="5.42412">
        <ele>365</ele>
        <time>2000-01-01T03:32:25.000Z</time>
      </trkpt>
      <trkpt lat="45.21971" lon="5.42417">
        <ele>365</ele>
        <time>2000-01-01T03:32:35.000Z</time>
      </trkpt>
      <trkpt lat="45.2196" lon="5.42417">
        <ele>343.6</ele>
        <time>2000-01-01T03:32:45.000Z</time>
      </trkpt>
      <trkpt lat="45.21951" lon="5.42414">
        <ele>361</ele>
        <time>2000-01-01T03:32:55.000Z</time>
      </trkpt>
      <trkpt lat="45.21943" lon="5.4241">
        <ele>347.9</ele>
        <time>2000-01-01T03:33:05.000Z</time>
      </trkpt>
      <trkpt lat="45.21891" lon="5.42379">
        <ele>351</ele>
        <time>2000-01-01T03:33:15.000Z</time>
      </trkpt>
      <trkpt lat="45.21877" lon="5.42369">
        <ele>346.7</ele>
        <time>2000-01-01T03:33:25.000Z</time>
      </trkpt>
      <trkpt lat="45.21873" lon="5.42365">
        <ele>352</ele>
        <time>2000-01-01T03:33:35.000Z</time>
      </trkpt>
      <trkpt lat="45.21872" lon="5.42362">
        <ele>346.7</ele>
        <time>2000-01-01T03:33:45.000Z</time>
      </trkpt>
      <trkpt lat="45.21872" lon="5.4236">
        <ele>346.8</ele>
        <time>2000-01-01T03:33:55.000Z</time>
      </trkpt>
      <trkpt lat="45.21872" lon="5.42357">
        <ele>347</ele>
        <time>2000-01-01T03:34:05.000Z</time>
      </trkpt>
      <trkpt lat="45.21873" lon="5.42356">
        <ele>347.1</ele>
        <time>2000-01-01T03:34:15.000Z</time>
      </trkpt>
      <trkpt lat="45.21882" lon="5.4235">
        <ele>348.2</ele>
        <time>2000-01-01T03:34:25.000Z</time>
      </trkpt>
      <trkpt lat="45.21891" lon="5.42341">
        <ele>354</ele>
        <time>2000-01-01T03:34:35.000Z</time>
      </trkpt>
      <trkpt lat="45.21905" lon="5.42328">
        <ele>353.3</ele>
        <time>2000-01-01T03:34:45.000Z</time>
      </trkpt>
      <trkpt lat="45.21914" lon="5.42317">
        <ele>357</ele>
        <time>2000-01-01T03:34:55.000Z</time>
      </trkpt>
      <trkpt lat="45.21915" lon="5.42312">
        <ele>356.2</ele>
        <time>2000-01-01T03:35:05.000Z</time>
      </trkpt>
      <trkpt lat="45.21913" lon="5.42304">
        <ele>356.4</ele>
        <time>2000-01-01T03:35:15.000Z</time>
      </trkpt>
      <trkpt lat="45.21903" lon="5.42284">
        <ele>360</ele>
        <time>2000-01-01T03:35:25.000Z</time>
      </trkpt>
      <trkpt lat="45.21894" lon="5.4226">
        <ele>362</ele>
        <time>2000-01-01T03:35:35.000Z</time>
      </trkpt>
      <trkpt lat="45.21892" lon="5.42254">
        <ele>355.4</ele>
        <time>2000-01-01T03:35:45.000Z</time>
      </trkpt>
      <trkpt lat="45.2189" lon="5.42242">
        <ele>355.8</ele>
        <time>2000-01-01T03:35:55.000Z</time>
      </trkpt>
      <trkpt lat="45.21884" lon="5.42228">
        <ele>362</ele>
        <time>2000-01-01T03:36:05.000Z</time>
      </trkpt>
      <trkpt lat="45.21873" lon="5.42199">
        <ele>362</ele>
        <time>2000-01-01T03:36:15.000Z</time>
      </trkpt>
      <trkpt lat="45.21867" lon="5.42184">
        <ele>356.9</ele>
        <time>2000-01-01T03:36:25.000Z</time>
      </trkpt>
      <trkpt lat="45.21864" lon="5.42179">
        <ele>357</ele>
        <time>2000-01-01T03:36:35.000Z</time>
      </trkpt>
      <trkpt lat="45.21857" lon="5.42175">
        <ele>362</ele>
        <time>2000-01-01T03:36:45.000Z</time>
      </trkpt>
      <trkpt lat="45.21851" lon="5.4217">
        <ele>355.4</ele>
        <time>2000-01-01T03:36:55.000Z</time>
      </trkpt>
      <trkpt lat="45.21844" lon="5.42161">
        <ele>355.2</ele>
        <time>2000-01-01T03:37:05.000Z</time>
      </trkpt>
      <trkpt lat="45.21843" lon="5.42157">
        <ele>363</ele>
        <time>2000-01-01T03:37:15.000Z</time>
      </trkpt>
      <trkpt lat="45.21838" lon="5.42143">
        <ele>356.1</ele>
        <time>2000-01-01T03:37:25.000Z</time>
      </trkpt>
      <trkpt lat="45.21835" lon="5.42133">
        <ele>356.1</ele>
        <time>2000-01-01T03:37:35.000Z</time>
      </trkpt>
      <trkpt lat="45.21833" lon="5.42125">
        <ele>365</ele>
        <time>2000-01-01T03:37:45.000Z</time>
      </trkpt>
      <trkpt lat="45.21833" lon="5.42115">
        <ele>356.6</ele>
        <time>2000-01-01T03:37:55.000Z</time>
      </trkpt>
      <trkpt lat="45.21834" lon="5.42077">
        <ele>365</ele>
        <time>2000-01-01T03:38:05.000Z</time>
      </trkpt>
      <trkpt lat="45.21834" lon="5.42036">
        <ele>363</ele>
        <time>2000-01-01T03:38:15.000Z</time>
      </trkpt>
      <trkpt lat="45.21834" lon="5.42031">
        <ele>354.5</ele>
        <time>2000-01-01T03:38:25.000Z</time>
      </trkpt>
      <trkpt lat="45.21837" lon="5.4202">
        <ele>355.3</ele>
        <time>2000-01-01T03:38:35.000Z</time>
      </trkpt>
      <trkpt lat="45.21838" lon="5.42013">
        <ele>355.5</ele>
        <time>2000-01-01T03:38:45.000Z</time>
      </trkpt>
      <trkpt lat="45.21838" lon="5.42008">
        <ele>359</ele>
        <time>2000-01-01T03:38:55.000Z</time>
      </trkpt>
      <trkpt lat="45.21835" lon="5.41985">
        <ele>353.2</ele>
        <time>2000-01-01T03:39:05.000Z</time>
      </trkpt>
      <trkpt lat="45.21834" lon="5.41958">
        <ele>356</ele>
        <time>2000-01-01T03:39:15.000Z</time>
      </trkpt>
      <trkpt lat="45.2183" lon="5.41932">
        <ele>350</ele>
        <time>2000-01-01T03:39:25.000Z</time>
      </trkpt>
      <trkpt lat="45.21831" lon="5.41911">
        <ele>355</ele>
        <time>2000-01-01T03:39:35.000Z</time>
      </trkpt>
      <trkpt lat="45.21827" lon="5.41885">
        <ele>349.1</ele>
        <time>2000-01-01T03:39:45.000Z</time>
      </trkpt>
      <trkpt lat="45.21827" lon="5.41873">
        <ele>355</ele>
        <time>2000-01-01T03:39:55.000Z</time>
      </trkpt>
      <trkpt lat="45.21828" lon="5.41866">
        <ele>349.1</ele>
        <time>2000-01-01T03:40:05.000Z</time>
      </trkpt>
      <trkpt lat="45.21832" lon="5.41859">
        <ele>349.8</ele>
        <time>2000-01-01T03:40:15.000Z</time>
      </trkpt>
      <trkpt lat="45.21834" lon="5.41851">
        <ele>350.6</ele>
        <time>2000-01-01T03:40:25.000Z</time>
      </trkpt>
      <trkpt lat="45.21837" lon="5.41816">
        <ele>356</ele>
        <time>2000-01-01T03:40:35.000Z</time>
      </trkpt>
      <trkpt lat="45.21837" lon="5.41811">
        <ele>352.2</ele>
        <time>2000-01-01T03:40:45.000Z</time>
      </trkpt>
      <trkpt lat="45.21836" lon="5.41806">
        <ele>351.9</ele>
        <time>2000-01-01T03:40:55.000Z</time>
      </trkpt>
      <trkpt lat="45.2183" lon="5.41786">
        <ele>356</ele>
        <time>2000-01-01T03:41:05.000Z</time>
      </trkpt>
      <trkpt lat="45.21828" lon="5.41776">
        <ele>348.8</ele>
        <time>2000-01-01T03:41:15.000Z</time>
      </trkpt>
      <trkpt lat="45.21827" lon="5.41767">
        <ele>348.3</ele>
        <time>2000-01-01T03:41:25.000Z</time>
      </trkpt>
      <trkpt lat="45.21827" lon="5.41754">
        <ele>356</ele>
        <time>2000-01-01T03:41:35.000Z</time>
      </trkpt>
      <trkpt lat="45.21828" lon="5.41733">
        <ele>347.1</ele>
        <time>2000-01-01T03:41:45.000Z</time>
      </trkpt>
      <trkpt lat="45.21831" lon="5.41715">
        <ele>354</ele>
        <time>2000-01-01T03:41:55.000Z</time>
      </trkpt>
      <trkpt lat="45.21834" lon="5.41704">
        <ele>344.9</ele>
        <time>2000-01-01T03:42:05.000Z</time>
      </trkpt>
      <trkpt lat="45.21836" lon="5.417">
        <ele>344.1</ele>
        <time>2000-01-01T03:42:15.000Z</time>
      </trkpt>
      <trkpt lat="45.21841" lon="5.41697">
        <ele>342.5</ele>
        <time>2000-01-01T03:42:25.000Z</time>
      </trkpt>
      <trkpt lat="45.21845" lon="5.41695">
        <ele>354</ele>
        <time>2000-01-01T03:42:35.000Z</time>
      </trkpt>
      <trkpt lat="45.21849" lon="5.41695">
        <ele>340.2</ele>
        <time>2000-01-01T03:42:45.000Z</time>
      </trkpt>
      <trkpt lat="45.21851" lon="5.41697">
        <ele>340.2</ele>
        <time>2000-01-01T03:42:55.000Z</time>
      </trkpt>
      <trkpt lat="45.21862" lon="5.4171">
        <ele>355</ele>
        <time>2000-01-01T03:43:05.000Z</time>
      </trkpt>
      <trkpt lat="45.21871" lon="5.41718">
        <ele>342.2</ele>
        <time>2000-01-01T03:43:15.000Z</time>
      </trkpt>
      <trkpt lat="45.21879" lon="5.41726">
        <ele>355</ele>
        <time>2000-01-01T03:43:25.000Z</time>
      </trkpt>
      <trkpt lat="45.2189" lon="5.41737">
        <ele>342.2</ele>
        <time>2000-01-01T03:43:35.000Z</time>
      </trkpt>
      <trkpt lat="45.21893" lon="5.41741">
        <ele>342</ele>
        <time>2000-01-01T03:43:45.000Z</time>
      </trkpt>
      <trkpt lat="45.21904" lon="5.41758">
        <ele>350</ele>
        <time>2000-01-01T03:43:55.000Z</time>
      </trkpt>
      <trkpt lat="45.21915" lon="5.4178">
        <ele>350</ele>
        <time>2000-01-01T03:44:05.000Z</time>
      </trkpt>
      <trkpt lat="45.21922" lon="5.41793">
        <ele>342.8</ele>
        <time>2000-01-01T03:44:15.000Z</time>
      </trkpt>
      <trkpt lat="45.21927" lon="5.41807">
        <ele>349</ele>
        <time>2000-01-01T03:44:25.000Z</time>
      </trkpt>
      <trkpt lat="45.21932" lon="5.41825">
        <ele>344.4</ele>
        <time>2000-01-01T03:44:35.000Z</time>
      </trkpt>
      <trkpt lat="45.2194" lon="5.41843">
        <ele>349</ele>
        <time>2000-01-01T03:44:45.000Z</time>
      </trkpt>
      <trkpt lat="45.21951" lon="5.4187">
        <ele>350</ele>
        <time>2000-01-01T03:44:55.000Z</time>
      </trkpt>
      <trkpt lat="45.21958" lon="5.41885">
        <ele>344.8</ele>
        <time>2000-01-01T03:45:05.000Z</time>
      </trkpt>
      <trkpt lat="45.21964" lon="5.41895">
        <ele>350</ele>
        <time>2000-01-01T03:45:15.000Z</time>
      </trkpt>
      <trkpt lat="45.21979" lon="5.41911">
        <ele>343.7</ele>
        <time>2000-01-01T03:45:25.000Z</time>
      </trkpt>
      <trkpt lat="45.21987" lon="5.41921">
        <ele>349</ele>
        <time>2000-01-01T03:45:35.000Z</time>
      </trkpt>
      <trkpt lat="45.21993" lon="5.41931">
        <ele>343.3</ele>
        <time>2000-01-01T03:45:45.000Z</time>
      </trkpt>
      <trkpt lat="45.22001" lon="5.41947">
        <ele>349</ele>
        <time>2000-01-01T03:45:55.000Z</time>
      </trkpt>
      <trkpt lat="45.22011" lon="5.41973">
        <ele>350</ele>
        <time>2000-01-01T03:46:05.000Z</time>
      </trkpt>
      <trkpt lat="45.22017" lon="5.41984">
        <ele>347.4</ele>
        <time>2000-01-01T03:46:15.000Z</time>
      </trkpt>
      <trkpt lat="45.22021" lon="5.4199">
        <ele>347.3</ele>
        <time>2000-01-01T03:46:25.000Z</time>
      </trkpt>
      <trkpt lat="45.22035" lon="5.42004">
        <ele>351</ele>
        <time>2000-01-01T03:46:35.000Z</time>
      </trkpt>
      <trkpt lat="45.2204" lon="5.42011">
        <ele>345.8</ele>
        <time>2000-01-01T03:46:45.000Z</time>
      </trkpt>
      <trkpt lat="45.22048" lon="5.42025">
        <ele>356</ele>
        <time>2000-01-01T03:46:55.000Z</time>
      </trkpt>
      <trkpt lat="45.22057" lon="5.42045">
        <ele>345.6</ele>
        <time>2000-01-01T03:47:05.000Z</time>
      </trkpt>
      <trkpt lat="45.22062" lon="5.42052">
        <ele>355</ele>
        <time>2000-01-01T03:47:15.000Z</time>
      </trkpt>
      <trkpt lat="45.22074" lon="5.42063">
        <ele>344.5</ele>
        <time>2000-01-01T03:47:25.000Z</time>
      </trkpt>
      <trkpt lat="45.22084" lon="5.42073">
        <ele>355</ele>
        <time>2000-01-01T03:47:35.000Z</time>
      </trkpt>
      <trkpt lat="45.22091" lon="5.42079">
        <ele>344.3</ele>
        <time>2000-01-01T03:47:45.000Z</time>
      </trkpt>
      <trkpt lat="45.22106" lon="5.42092">
        <ele>352</ele>
        <time>2000-01-01T03:47:55.000Z</time>
      </trkpt>
      <trkpt lat="45.22108" lon="5.42091">
        <ele>344.7</ele>
        <time>2000-01-01T03:48:05.000Z</time>
      </trkpt>
      <trkpt lat="45.22107" lon="5.42089">
        <ele>344.6</ele>
        <time>2000-01-01T03:48:15.000Z</time>
      </trkpt>
      <trkpt lat="45.22101" lon="5.42084">
        <ele>344.4</ele>
        <time>2000-01-01T03:48:25.000Z</time>
      </trkpt>
      <trkpt lat="45.22092" lon="5.42068">
        <ele>350</ele>
        <time>2000-01-01T03:48:35.000Z</time>
      </trkpt>
      <trkpt lat="45.22083" lon="5.42057">
        <ele>342.2</ele>
        <time>2000-01-01T03:48:45.000Z</time>
      </trkpt>
      <trkpt lat="45.22078" lon="5.42048">
        <ele>346</ele>
        <time>2000-01-01T03:48:55.000Z</time>
      </trkpt>
      <trkpt lat="45.22076" lon="5.42041">
        <ele>341.7</ele>
        <time>2000-01-01T03:49:05.000Z</time>
      </trkpt>
      <trkpt lat="45.22074" lon="5.42033">
        <ele>341.2</ele>
        <time>2000-01-01T03:49:15.000Z</time>
      </trkpt>
      <trkpt lat="45.22069" lon="5.42007">
        <ele>345</ele>
        <time>2000-01-01T03:49:25.000Z</time>
      </trkpt>
      <trkpt lat="45.22067" lon="5.41998">
        <ele>339.1</ele>
        <time>2000-01-01T03:49:35.000Z</time>
      </trkpt>
      <trkpt lat="45.22063" lon="5.41986">
        <ele>338</ele>
        <time>2000-01-01T03:49:45.000Z</time>
      </trkpt>
      <trkpt lat="45.22058" lon="5.41976">
        <ele>345</ele>
        <time>2000-01-01T03:49:55.000Z</time>
      </trkpt>
      <trkpt lat="45.22053" lon="5.41966">
        <ele>336.4</ele>
        <time>2000-01-01T03:50:05.000Z</time>
      </trkpt>
      <trkpt lat="45.22049" lon="5.4196">
        <ele>336.1</ele>
        <time>2000-01-01T03:50:15.000Z</time>
      </trkpt>
      <trkpt lat="45.22042" lon="5.41953">
        <ele>345</ele>
        <time>2000-01-01T03:50:25.000Z</time>
      </trkpt>
      <trkpt lat="45.22022" lon="5.41932">
        <ele>345</ele>
        <time>2000-01-01T03:50:35.000Z</time>
      </trkpt>
      <trkpt lat="45.22016" lon="5.41924">
        <ele>334.8</ele>
        <time>2000-01-01T03:50:45.000Z</time>
      </trkpt>
      <trkpt lat="45.2201" lon="5.41915">
        <ele>334.1</ele>
        <time>2000-01-01T03:50:55.000Z</time>
      </trkpt>
      <trkpt lat="45.21996" lon="5.41885">
        <ele>345</ele>
        <time>2000-01-01T03:51:05.000Z</time>
      </trkpt>
      <trkpt lat="45.21984" lon="5.41865">
        <ele>329.7</ele>
        <time>2000-01-01T03:51:15.000Z</time>
      </trkpt>
      <trkpt lat="45.21974" lon="5.41845">
        <ele>345</ele>
        <time>2000-01-01T03:51:25.000Z</time>
      </trkpt>
      <trkpt lat="45.21969" lon="5.41834">
        <ele>326.9</ele>
        <time>2000-01-01T03:51:35.000Z</time>
      </trkpt>
      <trkpt lat="45.21966" lon="5.41822">
        <ele>325.8</ele>
        <time>2000-01-01T03:51:45.000Z</time>
      </trkpt>
      <trkpt lat="45.21965" lon="5.41814">
        <ele>343</ele>
        <time>2000-01-01T03:51:55.000Z</time>
      </trkpt>
      <trkpt lat="45.21964" lon="5.41794">
        <ele>321.1</ele>
        <time>2000-01-01T03:52:05.000Z</time>
      </trkpt>
      <trkpt lat="45.21962" lon="5.41781">
        <ele>341</ele>
        <time>2000-01-01T03:52:15.000Z</time>
      </trkpt>
      <trkpt lat="45.21959" lon="5.41767">
        <ele>318.6</ele>
        <time>2000-01-01T03:52:25.000Z</time>
      </trkpt>
      <trkpt lat="45.21954" lon="5.41754">
        <ele>339</ele>
        <time>2000-01-01T03:52:35.000Z</time>
      </trkpt>
      <trkpt lat="45.21941" lon="5.41731">
        <ele>337</ele>
        <time>2000-01-01T03:52:45.000Z</time>
      </trkpt>
      <trkpt lat="45.21924" lon="5.41707">
        <ele>336</ele>
        <time>2000-01-01T03:52:55.000Z</time>
      </trkpt>
      <trkpt lat="45.21909" lon="5.41681">
        <ele>329</ele>
        <time>2000-01-01T03:53:05.000Z</time>
      </trkpt>
      <trkpt lat="45.21892" lon="5.41653">
        <ele>325</ele>
        <time>2000-01-01T03:53:15.000Z</time>
      </trkpt>
      <trkpt lat="45.21875" lon="5.41622">
        <ele>322</ele>
        <time>2000-01-01T03:53:25.000Z</time>
      </trkpt>
      <trkpt lat="45.21867" lon="5.4161">
        <ele>306</ele>
        <time>2000-01-01T03:53:35.000Z</time>
      </trkpt>
      <trkpt lat="45.21862" lon="5.41605">
        <ele>305.8</ele>
        <time>2000-01-01T03:53:45.000Z</time>
      </trkpt>
      <trkpt lat="45.21855" lon="5.41599">
        <ele>320</ele>
        <time>2000-01-01T03:53:55.000Z</time>
      </trkpt>
      <trkpt lat="45.21842" lon="5.41591">
        <ele>306.9</ele>
        <time>2000-01-01T03:54:05.000Z</time>
      </trkpt>
      <trkpt lat="45.21814" lon="5.41578">
        <ele>318</ele>
        <time>2000-01-01T03:54:15.000Z</time>
      </trkpt>
      <trkpt lat="45.21788" lon="5.41568">
        <ele>309</ele>
        <time>2000-01-01T03:54:25.000Z</time>
      </trkpt>
      <trkpt lat="45.21763" lon="5.41559">
        <ele>302</ele>
        <time>2000-01-01T03:54:35.000Z</time>
      </trkpt>
      <trkpt lat="45.21739" lon="5.41554">
        <ele>297</ele>
        <time>2000-01-01T03:54:45.000Z</time>
      </trkpt>
      <trkpt lat="45.21713" lon="5.41548">
        <ele>295</ele>
        <time>2000-01-01T03:54:55.000Z</time>
      </trkpt>
      <trkpt lat="45.21707" lon="5.41548">
        <ele>293</ele>
        <time>2000-01-01T03:55:05.000Z</time>
      </trkpt>
      <trkpt lat="45.217" lon="5.41548">
        <ele>291.6</ele>
        <time>2000-01-01T03:55:15.000Z</time>
      </trkpt>
      <trkpt lat="45.21694" lon="5.4155">
        <ele>292</ele>
        <time>2000-01-01T03:55:25.000Z</time>
      </trkpt>
      <trkpt lat="45.21667" lon="5.41566">
        <ele>287</ele>
        <time>2000-01-01T03:55:35.000Z</time>
      </trkpt>
      <trkpt lat="45.21654" lon="5.41572">
        <ele>285.6</ele>
        <time>2000-01-01T03:55:45.000Z</time>
      </trkpt>
      <trkpt lat="45.21641" lon="5.41576">
        <ele>284</ele>
        <time>2000-01-01T03:55:55.000Z</time>
      </trkpt>
      <trkpt lat="45.216" lon="5.41588">
        <ele>285</ele>
        <time>2000-01-01T03:56:05.000Z</time>
      </trkpt>
      <trkpt lat="45.21557" lon="5.41605">
        <ele>286</ele>
        <time>2000-01-01T03:56:15.000Z</time>
      </trkpt>
      <trkpt lat="45.21537" lon="5.41611">
        <ele>285</ele>
        <time>2000-01-01T03:56:25.000Z</time>
      </trkpt>
      <trkpt lat="45.21532" lon="5.41614">
        <ele>279</ele>
        <time>2000-01-01T03:56:35.000Z</time>
      </trkpt>
      <trkpt lat="45.21531" lon="5.41616">
        <ele>278.9</ele>
        <time>2000-01-01T03:56:45.000Z</time>
      </trkpt>
      <trkpt lat="45.21531" lon="5.4162">
        <ele>278.8</ele>
        <time>2000-01-01T03:56:55.000Z</time>
      </trkpt>
      <trkpt lat="45.21538" lon="5.41649">
        <ele>285</ele>
        <time>2000-01-01T03:57:05.000Z</time>
      </trkpt>
      <trkpt lat="45.21544" lon="5.41679">
        <ele>284</ele>
        <time>2000-01-01T03:57:15.000Z</time>
      </trkpt>
      <trkpt lat="45.21551" lon="5.41719">
        <ele>277</ele>
        <time>2000-01-01T03:57:25.000Z</time>
      </trkpt>
      <trkpt lat="45.21556" lon="5.41754">
        <ele>275</ele>
        <time>2000-01-01T03:57:35.000Z</time>
      </trkpt>
      <trkpt lat="45.21558" lon="5.41745">
        <ele>275</ele>
        <time>2000-01-01T03:57:45.000Z</time>
      </trkpt>
    </trkseg>
  </trk>
</gpx>